<?xml version="1.0" encoding="UTF-8" standalone="no" ?>
<gpx xmlns="http://www.topografix.com/GPX/1/1" creator="www.cicloide.com" version="1.1" xmlns:xsi="http://www.w3.org/2001/XMLSchema-instance" xsi:schemaLocation="http://www.topografix.com/GPX/1/1 http://www.topografix.com/GPX/1/1/gpx.xsd">
  <trk>
    <name>www.cicloide.com 4741</name>
    <desc>www.cicloide.com 4741</desc>
    <trkseg>
      <trkpt lat="41.544570000" lon="1.886082000">
        <ele>268.00</ele>
        <time>2011-04-11T16:57:37Z</time>
      </trkpt>
      <trkpt lat="41.544595000" lon="1.886147000">
        <ele>268.00</ele>
        <time>2011-04-11T16:57:51Z</time>
      </trkpt>
      <trkpt lat="41.544747000" lon="1.886272000">
        <ele>268.00</ele>
        <time>2011-04-11T16:58:06Z</time>
      </trkpt>
      <trkpt lat="41.544755000" lon="1.886335000">
        <ele>268.00</ele>
        <time>2011-04-11T16:58:10Z</time>
      </trkpt>
      <trkpt lat="41.544640000" lon="1.886562000">
        <ele>268.00</ele>
        <time>2011-04-11T16:58:17Z</time>
      </trkpt>
      <trkpt lat="41.544622000" lon="1.886593000">
        <ele>268.00</ele>
        <time>2011-04-11T16:58:17Z</time>
      </trkpt>
      <trkpt lat="41.544545000" lon="1.886690000">
        <ele>268.00</ele>
        <time>2011-04-11T16:58:20Z</time>
      </trkpt>
      <trkpt lat="41.544490000" lon="1.886798000">
        <ele>268.00</ele>
        <time>2011-04-11T16:58:24Z</time>
      </trkpt>
      <trkpt lat="41.544482000" lon="1.886823000">
        <ele>268.00</ele>
        <time>2011-04-11T16:58:25Z</time>
      </trkpt>
      <trkpt lat="41.544318000" lon="1.887057000">
        <ele>268.00</ele>
        <time>2011-04-11T16:58:34Z</time>
      </trkpt>
      <trkpt lat="41.544327000" lon="1.887092000">
        <ele>268.00</ele>
        <time>2011-04-11T16:58:34Z</time>
      </trkpt>
      <trkpt lat="41.544397000" lon="1.887400000">
        <ele>282.50</ele>
        <time>2011-04-11T16:58:43Z</time>
      </trkpt>
      <trkpt lat="41.544415000" lon="1.887433000">
        <ele>283.50</ele>
        <time>2011-04-11T16:58:45Z</time>
      </trkpt>
      <trkpt lat="41.544572000" lon="1.887513000">
        <ele>285.50</ele>
        <time>2011-04-11T16:58:48Z</time>
      </trkpt>
      <trkpt lat="41.544563000" lon="1.887600000">
        <ele>286.50</ele>
        <time>2011-04-11T16:58:50Z</time>
      </trkpt>
      <trkpt lat="41.544463000" lon="1.888042000">
        <ele>281.00</ele>
        <time>2011-04-11T16:59:00Z</time>
      </trkpt>
      <trkpt lat="41.544433000" lon="1.888258000">
        <ele>282.00</ele>
        <time>2011-04-11T16:59:06Z</time>
      </trkpt>
      <trkpt lat="41.544413000" lon="1.888400000">
        <ele>280.00</ele>
        <time>2011-04-11T16:59:09Z</time>
      </trkpt>
      <trkpt lat="41.544322000" lon="1.888902000">
        <ele>279.50</ele>
        <time>2011-04-11T16:59:19Z</time>
      </trkpt>
      <trkpt lat="41.544345000" lon="1.889008000">
        <ele>279.50</ele>
        <time>2011-04-11T16:59:21Z</time>
      </trkpt>
      <trkpt lat="41.544398000" lon="1.889220000">
        <ele>281.00</ele>
        <time>2011-04-11T16:59:26Z</time>
      </trkpt>
      <trkpt lat="41.544380000" lon="1.889422000">
        <ele>281.00</ele>
        <time>2011-04-11T16:59:32Z</time>
      </trkpt>
      <trkpt lat="41.544318000" lon="1.889725000">
        <ele>279.50</ele>
        <time>2011-04-11T16:59:40Z</time>
      </trkpt>
      <trkpt lat="41.544317000" lon="1.889755000">
        <ele>281.50</ele>
        <time>2011-04-11T16:59:40Z</time>
      </trkpt>
      <trkpt lat="41.544358000" lon="1.889805000">
        <ele>284.50</ele>
        <time>2011-04-11T16:59:42Z</time>
      </trkpt>
      <trkpt lat="41.544415000" lon="1.889843000">
        <ele>285.00</ele>
        <time>2011-04-11T16:59:44Z</time>
      </trkpt>
      <trkpt lat="41.544523000" lon="1.890020000">
        <ele>283.00</ele>
        <time>2011-04-11T16:59:49Z</time>
      </trkpt>
      <trkpt lat="41.544475000" lon="1.890318000">
        <ele>280.00</ele>
        <time>2011-04-11T16:59:56Z</time>
      </trkpt>
      <trkpt lat="41.544475000" lon="1.890477000">
        <ele>281.00</ele>
        <time>2011-04-11T17:00:01Z</time>
      </trkpt>
      <trkpt lat="41.544520000" lon="1.890552000">
        <ele>281.00</ele>
        <time>2011-04-11T17:00:03Z</time>
      </trkpt>
      <trkpt lat="41.544748000" lon="1.890907000">
        <ele>276.00</ele>
        <time>2011-04-11T17:00:13Z</time>
      </trkpt>
      <trkpt lat="41.544868000" lon="1.891092000">
        <ele>276.00</ele>
        <time>2011-04-11T17:00:20Z</time>
      </trkpt>
      <trkpt lat="41.544928000" lon="1.891153000">
        <ele>277.50</ele>
        <time>2011-04-11T17:00:24Z</time>
      </trkpt>
      <trkpt lat="41.544948000" lon="1.891180000">
        <ele>276.50</ele>
        <time>2011-04-11T17:00:24Z</time>
      </trkpt>
      <trkpt lat="41.545005000" lon="1.891295000">
        <ele>277.50</ele>
        <time>2011-04-11T17:00:31Z</time>
      </trkpt>
      <trkpt lat="41.545013000" lon="1.891315000">
        <ele>279.00</ele>
        <time>2011-04-11T17:00:31Z</time>
      </trkpt>
      <trkpt lat="41.545062000" lon="1.891350000">
        <ele>277.50</ele>
        <time>2011-04-11T17:00:34Z</time>
      </trkpt>
      <trkpt lat="41.545275000" lon="1.891467000">
        <ele>279.00</ele>
        <time>2011-04-11T17:00:41Z</time>
      </trkpt>
      <trkpt lat="41.545332000" lon="1.891505000">
        <ele>281.50</ele>
        <time>2011-04-11T17:00:45Z</time>
      </trkpt>
      <trkpt lat="41.545480000" lon="1.891658000">
        <ele>281.00</ele>
        <time>2011-04-11T17:00:50Z</time>
      </trkpt>
      <trkpt lat="41.545512000" lon="1.891697000">
        <ele>281.50</ele>
        <time>2011-04-11T17:00:50Z</time>
      </trkpt>
      <trkpt lat="41.545583000" lon="1.891798000">
        <ele>279.50</ele>
        <time>2011-04-11T17:00:52Z</time>
      </trkpt>
      <trkpt lat="41.545620000" lon="1.891828000">
        <ele>282.50</ele>
        <time>2011-04-11T17:00:54Z</time>
      </trkpt>
      <trkpt lat="41.545650000" lon="1.891887000">
        <ele>281.00</ele>
        <time>2011-04-11T17:00:55Z</time>
      </trkpt>
      <trkpt lat="41.545747000" lon="1.892080000">
        <ele>282.50</ele>
        <time>2011-04-11T17:00:59Z</time>
      </trkpt>
      <trkpt lat="41.545880000" lon="1.892265000">
        <ele>282.00</ele>
        <time>2011-04-11T17:01:04Z</time>
      </trkpt>
      <trkpt lat="41.546407000" lon="1.892395000">
        <ele>279.50</ele>
        <time>2011-04-11T17:01:16Z</time>
      </trkpt>
      <trkpt lat="41.546677000" lon="1.892463000">
        <ele>275.50</ele>
        <time>2011-04-11T17:01:23Z</time>
      </trkpt>
      <trkpt lat="41.546698000" lon="1.892502000">
        <ele>275.50</ele>
        <time>2011-04-11T17:01:25Z</time>
      </trkpt>
      <trkpt lat="41.546697000" lon="1.892685000">
        <ele>277.00</ele>
        <time>2011-04-11T17:01:28Z</time>
      </trkpt>
      <trkpt lat="41.546677000" lon="1.892758000">
        <ele>280.00</ele>
        <time>2011-04-11T17:01:30Z</time>
      </trkpt>
      <trkpt lat="41.546648000" lon="1.892877000">
        <ele>281.50</ele>
        <time>2011-04-11T17:01:34Z</time>
      </trkpt>
      <trkpt lat="41.546625000" lon="1.892995000">
        <ele>281.00</ele>
        <time>2011-04-11T17:01:37Z</time>
      </trkpt>
      <trkpt lat="41.546602000" lon="1.893057000">
        <ele>284.00</ele>
        <time>2011-04-11T17:01:39Z</time>
      </trkpt>
      <trkpt lat="41.546587000" lon="1.893132000">
        <ele>284.00</ele>
        <time>2011-04-11T17:01:41Z</time>
      </trkpt>
      <trkpt lat="41.546570000" lon="1.893198000">
        <ele>286.50</ele>
        <time>2011-04-11T17:01:42Z</time>
      </trkpt>
      <trkpt lat="41.546608000" lon="1.893337000">
        <ele>287.00</ele>
        <time>2011-04-11T17:01:46Z</time>
      </trkpt>
      <trkpt lat="41.546625000" lon="1.893355000">
        <ele>287.00</ele>
        <time>2011-04-11T17:01:48Z</time>
      </trkpt>
      <trkpt lat="41.546657000" lon="1.893370000">
        <ele>286.50</ele>
        <time>2011-04-11T17:01:49Z</time>
      </trkpt>
      <trkpt lat="41.546693000" lon="1.893410000">
        <ele>281.50</ele>
        <time>2011-04-11T17:01:53Z</time>
      </trkpt>
      <trkpt lat="41.546793000" lon="1.893470000">
        <ele>278.50</ele>
        <time>2011-04-11T17:01:58Z</time>
      </trkpt>
      <trkpt lat="41.547052000" lon="1.893492000">
        <ele>276.50</ele>
        <time>2011-04-11T17:02:07Z</time>
      </trkpt>
      <trkpt lat="41.547115000" lon="1.893525000">
        <ele>277.00</ele>
        <time>2011-04-11T17:02:08Z</time>
      </trkpt>
      <trkpt lat="41.547390000" lon="1.893790000">
        <ele>276.50</ele>
        <time>2011-04-11T17:02:19Z</time>
      </trkpt>
      <trkpt lat="41.547667000" lon="1.894112000">
        <ele>280.50</ele>
        <time>2011-04-11T17:02:31Z</time>
      </trkpt>
      <trkpt lat="41.547810000" lon="1.894257000">
        <ele>280.00</ele>
        <time>2011-04-11T17:02:36Z</time>
      </trkpt>
      <trkpt lat="41.547842000" lon="1.894267000">
        <ele>280.00</ele>
        <time>2011-04-11T17:02:38Z</time>
      </trkpt>
      <trkpt lat="41.548003000" lon="1.894200000">
        <ele>282.00</ele>
        <time>2011-04-11T17:02:43Z</time>
      </trkpt>
      <trkpt lat="41.548135000" lon="1.894125000">
        <ele>282.00</ele>
        <time>2011-04-11T17:02:48Z</time>
      </trkpt>
      <trkpt lat="41.548310000" lon="1.893973000">
        <ele>281.00</ele>
        <time>2011-04-11T17:02:55Z</time>
      </trkpt>
      <trkpt lat="41.548418000" lon="1.893862000">
        <ele>282.50</ele>
        <time>2011-04-11T17:03:01Z</time>
      </trkpt>
      <trkpt lat="41.548670000" lon="1.893780000">
        <ele>284.00</ele>
        <time>2011-04-11T17:03:09Z</time>
      </trkpt>
      <trkpt lat="41.549153000" lon="1.893645000">
        <ele>290.50</ele>
        <time>2011-04-11T17:03:29Z</time>
      </trkpt>
      <trkpt lat="41.549467000" lon="1.893553000">
        <ele>291.50</ele>
        <time>2011-04-11T17:03:41Z</time>
      </trkpt>
      <trkpt lat="41.549572000" lon="1.893467000">
        <ele>292.50</ele>
        <time>2011-04-11T17:03:46Z</time>
      </trkpt>
      <trkpt lat="41.549633000" lon="1.893395000">
        <ele>291.50</ele>
        <time>2011-04-11T17:03:49Z</time>
      </trkpt>
      <trkpt lat="41.549837000" lon="1.893107000">
        <ele>296.00</ele>
        <time>2011-04-11T17:04:02Z</time>
      </trkpt>
      <trkpt lat="41.550083000" lon="1.892768000">
        <ele>298.00</ele>
        <time>2011-04-11T17:04:14Z</time>
      </trkpt>
      <trkpt lat="41.550273000" lon="1.892542000">
        <ele>298.50</ele>
        <time>2011-04-11T17:04:24Z</time>
      </trkpt>
      <trkpt lat="41.550778000" lon="1.892438000">
        <ele>299.50</ele>
        <time>2011-04-11T17:04:40Z</time>
      </trkpt>
      <trkpt lat="41.551188000" lon="1.892262000">
        <ele>303.00</ele>
        <time>2011-04-11T17:04:56Z</time>
      </trkpt>
      <trkpt lat="41.551350000" lon="1.892183000">
        <ele>302.50</ele>
        <time>2011-04-11T17:05:01Z</time>
      </trkpt>
      <trkpt lat="41.551538000" lon="1.892197000">
        <ele>300.50</ele>
        <time>2011-04-11T17:05:06Z</time>
      </trkpt>
      <trkpt lat="41.551915000" lon="1.892187000">
        <ele>301.50</ele>
        <time>2011-04-11T17:05:17Z</time>
      </trkpt>
      <trkpt lat="41.551955000" lon="1.892153000">
        <ele>299.50</ele>
        <time>2011-04-11T17:06:07Z</time>
      </trkpt>
      <trkpt lat="41.551953000" lon="1.892167000">
        <ele>301.00</ele>
        <time>2011-04-11T17:07:01Z</time>
      </trkpt>
      <trkpt lat="41.552200000" lon="1.892123000">
        <ele>302.00</ele>
        <time>2011-04-11T17:07:17Z</time>
      </trkpt>
      <trkpt lat="41.552237000" lon="1.892165000">
        <ele>305.00</ele>
        <time>2011-04-11T17:07:18Z</time>
      </trkpt>
      <trkpt lat="41.552392000" lon="1.892248000">
        <ele>307.50</ele>
        <time>2011-04-11T17:07:25Z</time>
      </trkpt>
      <trkpt lat="41.552763000" lon="1.892365000">
        <ele>308.00</ele>
        <time>2011-04-11T17:07:39Z</time>
      </trkpt>
      <trkpt lat="41.553382000" lon="1.892430000">
        <ele>309.50</ele>
        <time>2011-04-11T17:08:00Z</time>
      </trkpt>
      <trkpt lat="41.553580000" lon="1.892542000">
        <ele>310.50</ele>
        <time>2011-04-11T17:08:07Z</time>
      </trkpt>
      <trkpt lat="41.553675000" lon="1.892627000">
        <ele>311.50</ele>
        <time>2011-04-11T17:08:11Z</time>
      </trkpt>
      <trkpt lat="41.553765000" lon="1.892612000">
        <ele>314.00</ele>
        <time>2011-04-11T17:08:14Z</time>
      </trkpt>
      <trkpt lat="41.553877000" lon="1.892467000">
        <ele>315.50</ele>
        <time>2011-04-11T17:08:21Z</time>
      </trkpt>
      <trkpt lat="41.553880000" lon="1.892373000">
        <ele>316.50</ele>
        <time>2011-04-11T17:08:25Z</time>
      </trkpt>
      <trkpt lat="41.553932000" lon="1.891813000">
        <ele>313.50</ele>
        <time>2011-04-11T17:08:40Z</time>
      </trkpt>
      <trkpt lat="41.553908000" lon="1.891400000">
        <ele>318.00</ele>
        <time>2011-04-11T17:08:49Z</time>
      </trkpt>
      <trkpt lat="41.553900000" lon="1.891052000">
        <ele>318.50</ele>
        <time>2011-04-11T17:08:58Z</time>
      </trkpt>
      <trkpt lat="41.553932000" lon="1.890905000">
        <ele>317.00</ele>
        <time>2011-04-11T17:09:01Z</time>
      </trkpt>
      <trkpt lat="41.553995000" lon="1.890868000">
        <ele>319.50</ele>
        <time>2011-04-11T17:09:03Z</time>
      </trkpt>
      <trkpt lat="41.554435000" lon="1.890843000">
        <ele>323.50</ele>
        <time>2011-04-11T17:09:15Z</time>
      </trkpt>
      <trkpt lat="41.554548000" lon="1.890828000">
        <ele>326.00</ele>
        <time>2011-04-11T17:09:19Z</time>
      </trkpt>
      <trkpt lat="41.554857000" lon="1.890793000">
        <ele>327.00</ele>
        <time>2011-04-11T17:09:29Z</time>
      </trkpt>
      <trkpt lat="41.555662000" lon="1.890905000">
        <ele>331.00</ele>
        <time>2011-04-11T17:09:55Z</time>
      </trkpt>
      <trkpt lat="41.556243000" lon="1.890798000">
        <ele>334.00</ele>
        <time>2011-04-11T17:10:16Z</time>
      </trkpt>
      <trkpt lat="41.556567000" lon="1.890788000">
        <ele>337.00</ele>
        <time>2011-04-11T17:10:28Z</time>
      </trkpt>
      <trkpt lat="41.556618000" lon="1.890772000">
        <ele>338.00</ele>
        <time>2011-04-11T17:10:30Z</time>
      </trkpt>
      <trkpt lat="41.556817000" lon="1.890685000">
        <ele>338.00</ele>
        <time>2011-04-11T17:10:37Z</time>
      </trkpt>
      <trkpt lat="41.556878000" lon="1.890657000">
        <ele>340.00</ele>
        <time>2011-04-11T17:10:41Z</time>
      </trkpt>
      <trkpt lat="41.556923000" lon="1.890612000">
        <ele>340.50</ele>
        <time>2011-04-11T17:10:42Z</time>
      </trkpt>
      <trkpt lat="41.556955000" lon="1.890425000">
        <ele>340.50</ele>
        <time>2011-04-11T17:10:48Z</time>
      </trkpt>
      <trkpt lat="41.556962000" lon="1.890258000">
        <ele>339.00</ele>
        <time>2011-04-11T17:10:51Z</time>
      </trkpt>
      <trkpt lat="41.556900000" lon="1.890060000">
        <ele>337.50</ele>
        <time>2011-04-11T17:10:53Z</time>
      </trkpt>
      <trkpt lat="41.556842000" lon="1.889852000">
        <ele>337.50</ele>
        <time>2011-04-11T17:10:56Z</time>
      </trkpt>
      <trkpt lat="41.556887000" lon="1.889097000">
        <ele>336.00</ele>
        <time>2011-04-11T17:11:07Z</time>
      </trkpt>
      <trkpt lat="41.556693000" lon="1.888495000">
        <ele>334.50</ele>
        <time>2011-04-11T17:11:17Z</time>
      </trkpt>
      <trkpt lat="41.556773000" lon="1.888378000">
        <ele>333.00</ele>
        <time>2011-04-11T17:11:19Z</time>
      </trkpt>
      <trkpt lat="41.556900000" lon="1.888598000">
        <ele>328.50</ele>
        <time>2011-04-11T17:11:24Z</time>
      </trkpt>
      <trkpt lat="41.557052000" lon="1.888942000">
        <ele>327.50</ele>
        <time>2011-04-11T17:11:29Z</time>
      </trkpt>
      <trkpt lat="41.557130000" lon="1.889088000">
        <ele>325.50</ele>
        <time>2011-04-11T17:11:31Z</time>
      </trkpt>
      <trkpt lat="41.557230000" lon="1.889553000">
        <ele>322.50</ele>
        <time>2011-04-11T17:11:36Z</time>
      </trkpt>
      <trkpt lat="41.557262000" lon="1.889630000">
        <ele>322.50</ele>
        <time>2011-04-11T17:11:38Z</time>
      </trkpt>
      <trkpt lat="41.557612000" lon="1.889992000">
        <ele>322.00</ele>
        <time>2011-04-11T17:11:45Z</time>
      </trkpt>
      <trkpt lat="41.557657000" lon="1.890048000">
        <ele>320.00</ele>
        <time>2011-04-11T17:11:45Z</time>
      </trkpt>
      <trkpt lat="41.557755000" lon="1.890130000">
        <ele>321.00</ele>
        <time>2011-04-11T17:11:47Z</time>
      </trkpt>
      <trkpt lat="41.558190000" lon="1.890527000">
        <ele>319.00</ele>
        <time>2011-04-11T17:11:57Z</time>
      </trkpt>
      <trkpt lat="41.558363000" lon="1.890613000">
        <ele>318.50</ele>
        <time>2011-04-11T17:12:01Z</time>
      </trkpt>
      <trkpt lat="41.558853000" lon="1.891075000">
        <ele>318.00</ele>
        <time>2011-04-11T17:12:11Z</time>
      </trkpt>
      <trkpt lat="41.559055000" lon="1.891097000">
        <ele>318.00</ele>
        <time>2011-04-11T17:12:16Z</time>
      </trkpt>
      <trkpt lat="41.559395000" lon="1.891147000">
        <ele>320.00</ele>
        <time>2011-04-11T17:12:27Z</time>
      </trkpt>
      <trkpt lat="41.559667000" lon="1.891208000">
        <ele>325.50</ele>
        <time>2011-04-11T17:12:36Z</time>
      </trkpt>
      <trkpt lat="41.559948000" lon="1.891203000">
        <ele>326.00</ele>
        <time>2011-04-11T17:12:42Z</time>
      </trkpt>
      <trkpt lat="41.559993000" lon="1.891047000">
        <ele>326.00</ele>
        <time>2011-04-11T17:12:46Z</time>
      </trkpt>
      <trkpt lat="41.559808000" lon="1.890937000">
        <ele>326.00</ele>
        <time>2011-04-11T17:12:55Z</time>
      </trkpt>
      <trkpt lat="41.559670000" lon="1.890838000">
        <ele>330.00</ele>
        <time>2011-04-11T17:13:00Z</time>
      </trkpt>
      <trkpt lat="41.559490000" lon="1.890730000">
        <ele>331.00</ele>
        <time>2011-04-11T17:13:10Z</time>
      </trkpt>
      <trkpt lat="41.559247000" lon="1.890463000">
        <ele>334.50</ele>
        <time>2011-04-11T17:13:26Z</time>
      </trkpt>
      <trkpt lat="41.559178000" lon="1.890380000">
        <ele>333.00</ele>
        <time>2011-04-11T17:13:30Z</time>
      </trkpt>
      <trkpt lat="41.559140000" lon="1.890320000">
        <ele>333.50</ele>
        <time>2011-04-11T17:13:33Z</time>
      </trkpt>
      <trkpt lat="41.559135000" lon="1.890293000">
        <ele>334.00</ele>
        <time>2011-04-11T17:13:33Z</time>
      </trkpt>
      <trkpt lat="41.559105000" lon="1.890233000">
        <ele>331.50</ele>
        <time>2011-04-11T17:13:36Z</time>
      </trkpt>
      <trkpt lat="41.559078000" lon="1.890118000">
        <ele>330.50</ele>
        <time>2011-04-11T17:13:40Z</time>
      </trkpt>
      <trkpt lat="41.558953000" lon="1.889578000">
        <ele>337.50</ele>
        <time>2011-04-11T17:14:03Z</time>
      </trkpt>
      <trkpt lat="41.558882000" lon="1.889423000">
        <ele>338.00</ele>
        <time>2011-04-11T17:14:10Z</time>
      </trkpt>
      <trkpt lat="41.558913000" lon="1.889252000">
        <ele>338.50</ele>
        <time>2011-04-11T17:14:18Z</time>
      </trkpt>
      <trkpt lat="41.559205000" lon="1.889173000">
        <ele>341.50</ele>
        <time>2011-04-11T17:14:30Z</time>
      </trkpt>
      <trkpt lat="41.559233000" lon="1.889157000">
        <ele>342.00</ele>
        <time>2011-04-11T17:14:32Z</time>
      </trkpt>
      <trkpt lat="41.559265000" lon="1.889073000">
        <ele>341.50</ele>
        <time>2011-04-11T17:14:34Z</time>
      </trkpt>
      <trkpt lat="41.559083000" lon="1.888688000">
        <ele>343.00</ele>
        <time>2011-04-11T17:14:43Z</time>
      </trkpt>
      <trkpt lat="41.559072000" lon="1.888653000">
        <ele>344.50</ele>
        <time>2011-04-11T17:14:43Z</time>
      </trkpt>
      <trkpt lat="41.558998000" lon="1.888508000">
        <ele>345.00</ele>
        <time>2011-04-11T17:14:48Z</time>
      </trkpt>
      <trkpt lat="41.558987000" lon="1.888473000">
        <ele>346.00</ele>
        <time>2011-04-11T17:14:48Z</time>
      </trkpt>
      <trkpt lat="41.559023000" lon="1.888323000">
        <ele>344.50</ele>
        <time>2011-04-11T17:14:51Z</time>
      </trkpt>
      <trkpt lat="41.559128000" lon="1.888230000">
        <ele>345.50</ele>
        <time>2011-04-11T17:14:57Z</time>
      </trkpt>
      <trkpt lat="41.559292000" lon="1.888210000">
        <ele>342.50</ele>
        <time>2011-04-11T17:15:02Z</time>
      </trkpt>
      <trkpt lat="41.559462000" lon="1.888188000">
        <ele>342.50</ele>
        <time>2011-04-11T17:15:07Z</time>
      </trkpt>
      <trkpt lat="41.559543000" lon="1.888162000">
        <ele>343.50</ele>
        <time>2011-04-11T17:15:09Z</time>
      </trkpt>
      <trkpt lat="41.559625000" lon="1.888108000">
        <ele>344.50</ele>
        <time>2011-04-11T17:15:11Z</time>
      </trkpt>
      <trkpt lat="41.559925000" lon="1.887915000">
        <ele>345.50</ele>
        <time>2011-04-11T17:15:18Z</time>
      </trkpt>
      <trkpt lat="41.559997000" lon="1.887908000">
        <ele>345.50</ele>
        <time>2011-04-11T17:15:19Z</time>
      </trkpt>
      <trkpt lat="41.560147000" lon="1.887920000">
        <ele>348.00</ele>
        <time>2011-04-11T17:15:24Z</time>
      </trkpt>
      <trkpt lat="41.560188000" lon="1.887888000">
        <ele>350.50</ele>
        <time>2011-04-11T17:15:26Z</time>
      </trkpt>
      <trkpt lat="41.560195000" lon="1.887847000">
        <ele>351.00</ele>
        <time>2011-04-11T17:15:28Z</time>
      </trkpt>
      <trkpt lat="41.560153000" lon="1.887660000">
        <ele>351.00</ele>
        <time>2011-04-11T17:15:33Z</time>
      </trkpt>
      <trkpt lat="41.559845000" lon="1.887275000">
        <ele>352.50</ele>
        <time>2011-04-11T17:15:47Z</time>
      </trkpt>
      <trkpt lat="41.559805000" lon="1.887223000">
        <ele>351.50</ele>
        <time>2011-04-11T17:15:49Z</time>
      </trkpt>
      <trkpt lat="41.559840000" lon="1.886990000">
        <ele>350.00</ele>
        <time>2011-04-11T17:15:56Z</time>
      </trkpt>
      <trkpt lat="41.559963000" lon="1.886860000">
        <ele>347.50</ele>
        <time>2011-04-11T17:15:59Z</time>
      </trkpt>
      <trkpt lat="41.560130000" lon="1.886668000">
        <ele>347.50</ele>
        <time>2011-04-11T17:16:03Z</time>
      </trkpt>
      <trkpt lat="41.559948000" lon="1.886198000">
        <ele>348.00</ele>
        <time>2011-04-11T17:16:13Z</time>
      </trkpt>
      <trkpt lat="41.559933000" lon="1.886152000">
        <ele>348.50</ele>
        <time>2011-04-11T17:16:13Z</time>
      </trkpt>
      <trkpt lat="41.559917000" lon="1.885983000">
        <ele>351.50</ele>
        <time>2011-04-11T17:16:17Z</time>
      </trkpt>
      <trkpt lat="41.559953000" lon="1.885798000">
        <ele>352.00</ele>
        <time>2011-04-11T17:16:22Z</time>
      </trkpt>
      <trkpt lat="41.559948000" lon="1.885750000">
        <ele>351.50</ele>
        <time>2011-04-11T17:16:22Z</time>
      </trkpt>
      <trkpt lat="41.559665000" lon="1.885392000">
        <ele>344.50</ele>
        <time>2011-04-11T17:16:32Z</time>
      </trkpt>
      <trkpt lat="41.559600000" lon="1.885322000">
        <ele>345.00</ele>
        <time>2011-04-11T17:16:34Z</time>
      </trkpt>
      <trkpt lat="41.559293000" lon="1.884937000">
        <ele>335.50</ele>
        <time>2011-04-11T17:16:43Z</time>
      </trkpt>
      <trkpt lat="41.559253000" lon="1.884882000">
        <ele>335.50</ele>
        <time>2011-04-11T17:16:43Z</time>
      </trkpt>
      <trkpt lat="41.559147000" lon="1.884738000">
        <ele>330.50</ele>
        <time>2011-04-11T17:16:46Z</time>
      </trkpt>
      <trkpt lat="41.559090000" lon="1.884625000">
        <ele>327.50</ele>
        <time>2011-04-11T17:16:48Z</time>
      </trkpt>
      <trkpt lat="41.559018000" lon="1.884455000">
        <ele>326.50</ele>
        <time>2011-04-11T17:16:52Z</time>
      </trkpt>
      <trkpt lat="41.558993000" lon="1.884397000">
        <ele>324.50</ele>
        <time>2011-04-11T17:16:53Z</time>
      </trkpt>
      <trkpt lat="41.558937000" lon="1.884218000">
        <ele>318.00</ele>
        <time>2011-04-11T17:16:55Z</time>
      </trkpt>
      <trkpt lat="41.558862000" lon="1.883902000">
        <ele>315.00</ele>
        <time>2011-04-11T17:17:00Z</time>
      </trkpt>
      <trkpt lat="41.558795000" lon="1.883673000">
        <ele>310.50</ele>
        <time>2011-04-11T17:17:04Z</time>
      </trkpt>
      <trkpt lat="41.558767000" lon="1.883500000">
        <ele>307.50</ele>
        <time>2011-04-11T17:17:05Z</time>
      </trkpt>
      <trkpt lat="41.558738000" lon="1.883265000">
        <ele>306.00</ele>
        <time>2011-04-11T17:17:09Z</time>
      </trkpt>
      <trkpt lat="41.558677000" lon="1.882967000">
        <ele>306.50</ele>
        <time>2011-04-11T17:17:12Z</time>
      </trkpt>
      <trkpt lat="41.558603000" lon="1.882555000">
        <ele>301.50</ele>
        <time>2011-04-11T17:17:18Z</time>
      </trkpt>
      <trkpt lat="41.558598000" lon="1.882440000">
        <ele>302.50</ele>
        <time>2011-04-11T17:17:23Z</time>
      </trkpt>
      <trkpt lat="41.558463000" lon="1.882512000">
        <ele>305.50</ele>
        <time>2011-04-11T17:17:30Z</time>
      </trkpt>
      <trkpt lat="41.558447000" lon="1.882533000">
        <ele>305.00</ele>
        <time>2011-04-11T17:17:30Z</time>
      </trkpt>
      <trkpt lat="41.558373000" lon="1.882828000">
        <ele>301.00</ele>
        <time>2011-04-11T17:17:37Z</time>
      </trkpt>
      <trkpt lat="41.558278000" lon="1.882957000">
        <ele>302.00</ele>
        <time>2011-04-11T17:17:40Z</time>
      </trkpt>
      <trkpt lat="41.558182000" lon="1.882945000">
        <ele>302.50</ele>
        <time>2011-04-11T17:17:42Z</time>
      </trkpt>
      <trkpt lat="41.557853000" lon="1.882795000">
        <ele>301.00</ele>
        <time>2011-04-11T17:17:49Z</time>
      </trkpt>
      <trkpt lat="41.557633000" lon="1.882907000">
        <ele>299.50</ele>
        <time>2011-04-11T17:17:51Z</time>
      </trkpt>
      <trkpt lat="41.557545000" lon="1.883013000">
        <ele>298.00</ele>
        <time>2011-04-11T17:17:54Z</time>
      </trkpt>
      <trkpt lat="41.557405000" lon="1.883398000">
        <ele>295.50</ele>
        <time>2011-04-11T17:17:59Z</time>
      </trkpt>
      <trkpt lat="41.557402000" lon="1.883440000">
        <ele>297.00</ele>
        <time>2011-04-11T17:18:01Z</time>
      </trkpt>
      <trkpt lat="41.557393000" lon="1.883958000">
        <ele>288.00</ele>
        <time>2011-04-11T17:18:08Z</time>
      </trkpt>
      <trkpt lat="41.557343000" lon="1.884218000">
        <ele>285.00</ele>
        <time>2011-04-11T17:18:12Z</time>
      </trkpt>
      <trkpt lat="41.557227000" lon="1.884550000">
        <ele>283.50</ele>
        <time>2011-04-11T17:18:17Z</time>
      </trkpt>
      <trkpt lat="41.557182000" lon="1.884628000">
        <ele>281.50</ele>
        <time>2011-04-11T17:18:22Z</time>
      </trkpt>
      <trkpt lat="41.557182000" lon="1.884015000">
        <ele>274.00</ele>
        <time>2011-04-11T17:18:33Z</time>
      </trkpt>
      <trkpt lat="41.557180000" lon="1.883472000">
        <ele>273.50</ele>
        <time>2011-04-11T17:18:45Z</time>
      </trkpt>
      <trkpt lat="41.557280000" lon="1.882615000">
        <ele>273.00</ele>
        <time>2011-04-11T17:18:59Z</time>
      </trkpt>
      <trkpt lat="41.557590000" lon="1.882358000">
        <ele>273.00</ele>
        <time>2011-04-11T17:19:09Z</time>
      </trkpt>
      <trkpt lat="41.557732000" lon="1.882455000">
        <ele>272.50</ele>
        <time>2011-04-11T17:19:14Z</time>
      </trkpt>
      <trkpt lat="41.557910000" lon="1.882317000">
        <ele>273.00</ele>
        <time>2011-04-11T17:19:21Z</time>
      </trkpt>
      <trkpt lat="41.557978000" lon="1.882075000">
        <ele>272.00</ele>
        <time>2011-04-11T17:19:25Z</time>
      </trkpt>
      <trkpt lat="41.557952000" lon="1.881505000">
        <ele>271.50</ele>
        <time>2011-04-11T17:19:32Z</time>
      </trkpt>
      <trkpt lat="41.558157000" lon="1.881115000">
        <ele>271.00</ele>
        <time>2011-04-11T17:19:56Z</time>
      </trkpt>
      <trkpt lat="41.558655000" lon="1.881260000">
        <ele>270.50</ele>
        <time>2011-04-11T17:20:12Z</time>
      </trkpt>
      <trkpt lat="41.558762000" lon="1.881273000">
        <ele>270.00</ele>
        <time>2011-04-11T17:20:14Z</time>
      </trkpt>
      <trkpt lat="41.560807000" lon="1.881372000">
        <ele>259.00</ele>
        <time>2011-04-11T17:20:45Z</time>
      </trkpt>
      <trkpt lat="41.561013000" lon="1.881402000">
        <ele>259.00</ele>
        <time>2011-04-11T17:20:48Z</time>
      </trkpt>
      <trkpt lat="41.562473000" lon="1.881903000">
        <ele>258.00</ele>
        <time>2011-04-11T17:21:08Z</time>
      </trkpt>
      <trkpt lat="41.562872000" lon="1.881917000">
        <ele>257.50</ele>
        <time>2011-04-11T17:21:13Z</time>
      </trkpt>
      <trkpt lat="41.563360000" lon="1.881947000">
        <ele>254.50</ele>
        <time>2011-04-11T17:21:20Z</time>
      </trkpt>
      <trkpt lat="41.563865000" lon="1.881840000">
        <ele>252.50</ele>
        <time>2011-04-11T17:21:27Z</time>
      </trkpt>
      <trkpt lat="41.564037000" lon="1.881790000">
        <ele>252.50</ele>
        <time>2011-04-11T17:21:30Z</time>
      </trkpt>
      <trkpt lat="41.564080000" lon="1.881760000">
        <ele>254.50</ele>
        <time>2011-04-11T17:21:32Z</time>
      </trkpt>
      <trkpt lat="41.564128000" lon="1.881762000">
        <ele>254.50</ele>
        <time>2011-04-11T17:21:32Z</time>
      </trkpt>
      <trkpt lat="41.564442000" lon="1.881600000">
        <ele>254.00</ele>
        <time>2011-04-11T17:21:37Z</time>
      </trkpt>
      <trkpt lat="41.565187000" lon="1.881312000">
        <ele>250.00</ele>
        <time>2011-04-11T17:21:51Z</time>
      </trkpt>
      <trkpt lat="41.565977000" lon="1.880893000">
        <ele>248.50</ele>
        <time>2011-04-11T17:22:05Z</time>
      </trkpt>
      <trkpt lat="41.566590000" lon="1.880457000">
        <ele>247.50</ele>
        <time>2011-04-11T17:22:16Z</time>
      </trkpt>
      <trkpt lat="41.566655000" lon="1.880448000">
        <ele>247.00</ele>
        <time>2011-04-11T17:22:17Z</time>
      </trkpt>
      <trkpt lat="41.567015000" lon="1.880548000">
        <ele>251.50</ele>
        <time>2011-04-11T17:22:24Z</time>
      </trkpt>
      <trkpt lat="41.567152000" lon="1.880588000">
        <ele>252.00</ele>
        <time>2011-04-11T17:22:30Z</time>
      </trkpt>
      <trkpt lat="41.567378000" lon="1.880295000">
        <ele>252.50</ele>
        <time>2011-04-11T17:22:40Z</time>
      </trkpt>
      <trkpt lat="41.567487000" lon="1.880227000">
        <ele>251.00</ele>
        <time>2011-04-11T17:22:43Z</time>
      </trkpt>
      <trkpt lat="41.567545000" lon="1.880223000">
        <ele>251.00</ele>
        <time>2011-04-11T17:22:45Z</time>
      </trkpt>
      <trkpt lat="41.567597000" lon="1.880245000">
        <ele>251.50</ele>
        <time>2011-04-11T17:22:47Z</time>
      </trkpt>
      <trkpt lat="41.567725000" lon="1.880435000">
        <ele>255.00</ele>
        <time>2011-04-11T17:22:54Z</time>
      </trkpt>
      <trkpt lat="41.567828000" lon="1.880612000">
        <ele>256.00</ele>
        <time>2011-04-11T17:23:01Z</time>
      </trkpt>
      <trkpt lat="41.568113000" lon="1.880760000">
        <ele>256.50</ele>
        <time>2011-04-11T17:23:11Z</time>
      </trkpt>
      <trkpt lat="41.568190000" lon="1.880768000">
        <ele>256.50</ele>
        <time>2011-04-11T17:23:13Z</time>
      </trkpt>
      <trkpt lat="41.568317000" lon="1.880735000">
        <ele>256.00</ele>
        <time>2011-04-11T17:23:15Z</time>
      </trkpt>
      <trkpt lat="41.569375000" lon="1.879930000">
        <ele>252.00</ele>
        <time>2011-04-11T17:23:36Z</time>
      </trkpt>
      <trkpt lat="41.569860000" lon="1.879547000">
        <ele>251.50</ele>
        <time>2011-04-11T17:23:43Z</time>
      </trkpt>
      <trkpt lat="41.570065000" lon="1.879127000">
        <ele>252.00</ele>
        <time>2011-04-11T17:23:48Z</time>
      </trkpt>
      <trkpt lat="41.570328000" lon="1.878553000">
        <ele>250.00</ele>
        <time>2011-04-11T17:23:55Z</time>
      </trkpt>
      <trkpt lat="41.570408000" lon="1.878438000">
        <ele>250.00</ele>
        <time>2011-04-11T17:23:57Z</time>
      </trkpt>
      <trkpt lat="41.570613000" lon="1.878092000">
        <ele>248.50</ele>
        <time>2011-04-11T17:24:09Z</time>
      </trkpt>
      <trkpt lat="41.570615000" lon="1.878057000">
        <ele>246.50</ele>
        <time>2011-04-11T17:24:11Z</time>
      </trkpt>
      <trkpt lat="41.570820000" lon="1.877825000">
        <ele>245.00</ele>
        <time>2011-04-11T17:24:26Z</time>
      </trkpt>
      <trkpt lat="41.570947000" lon="1.877610000">
        <ele>248.50</ele>
        <time>2011-04-11T17:24:38Z</time>
      </trkpt>
      <trkpt lat="41.571002000" lon="1.877562000">
        <ele>248.50</ele>
        <time>2011-04-11T17:24:42Z</time>
      </trkpt>
      <trkpt lat="41.571107000" lon="1.877183000">
        <ele>251.00</ele>
        <time>2011-04-11T17:24:59Z</time>
      </trkpt>
      <trkpt lat="41.571115000" lon="1.877167000">
        <ele>251.50</ele>
        <time>2011-04-11T17:25:01Z</time>
      </trkpt>
      <trkpt lat="41.571282000" lon="1.877057000">
        <ele>255.50</ele>
        <time>2011-04-11T17:25:13Z</time>
      </trkpt>
      <trkpt lat="41.571400000" lon="1.877050000">
        <ele>261.50</ele>
        <time>2011-04-11T17:25:20Z</time>
      </trkpt>
      <trkpt lat="41.571443000" lon="1.877007000">
        <ele>262.00</ele>
        <time>2011-04-11T17:25:24Z</time>
      </trkpt>
      <trkpt lat="41.571497000" lon="1.876998000">
        <ele>265.50</ele>
        <time>2011-04-11T17:25:27Z</time>
      </trkpt>
      <trkpt lat="41.571535000" lon="1.876958000">
        <ele>265.50</ele>
        <time>2011-04-11T17:25:31Z</time>
      </trkpt>
      <trkpt lat="41.571575000" lon="1.876935000">
        <ele>268.00</ele>
        <time>2011-04-11T17:25:34Z</time>
      </trkpt>
      <trkpt lat="41.571600000" lon="1.876897000">
        <ele>268.00</ele>
        <time>2011-04-11T17:25:36Z</time>
      </trkpt>
      <trkpt lat="41.571655000" lon="1.876475000">
        <ele>268.50</ele>
        <time>2011-04-11T17:25:53Z</time>
      </trkpt>
      <trkpt lat="41.571658000" lon="1.876462000">
        <ele>268.00</ele>
        <time>2011-04-11T17:25:53Z</time>
      </trkpt>
      <trkpt lat="41.571743000" lon="1.876253000">
        <ele>267.00</ele>
        <time>2011-04-11T17:26:02Z</time>
      </trkpt>
      <trkpt lat="41.571775000" lon="1.876182000">
        <ele>269.00</ele>
        <time>2011-04-11T17:26:07Z</time>
      </trkpt>
      <trkpt lat="41.571818000" lon="1.876040000">
        <ele>270.00</ele>
        <time>2011-04-11T17:26:14Z</time>
      </trkpt>
      <trkpt lat="41.571815000" lon="1.875973000">
        <ele>270.00</ele>
        <time>2011-04-11T17:26:16Z</time>
      </trkpt>
      <trkpt lat="41.571785000" lon="1.875855000">
        <ele>274.00</ele>
        <time>2011-04-11T17:26:23Z</time>
      </trkpt>
      <trkpt lat="41.571788000" lon="1.875678000">
        <ele>276.50</ele>
        <time>2011-04-11T17:26:30Z</time>
      </trkpt>
      <trkpt lat="41.571775000" lon="1.875412000">
        <ele>279.00</ele>
        <time>2011-04-11T17:26:39Z</time>
      </trkpt>
      <trkpt lat="41.571737000" lon="1.875298000">
        <ele>278.50</ele>
        <time>2011-04-11T17:26:42Z</time>
      </trkpt>
      <trkpt lat="41.571653000" lon="1.875078000">
        <ele>282.00</ele>
        <time>2011-04-11T17:26:49Z</time>
      </trkpt>
      <trkpt lat="41.571383000" lon="1.874650000">
        <ele>279.50</ele>
        <time>2011-04-11T17:27:03Z</time>
      </trkpt>
      <trkpt lat="41.571330000" lon="1.874510000">
        <ele>282.00</ele>
        <time>2011-04-11T17:27:10Z</time>
      </trkpt>
      <trkpt lat="41.571347000" lon="1.874402000">
        <ele>284.00</ele>
        <time>2011-04-11T17:27:15Z</time>
      </trkpt>
      <trkpt lat="41.571368000" lon="1.874357000">
        <ele>283.50</ele>
        <time>2011-04-11T17:27:17Z</time>
      </trkpt>
      <trkpt lat="41.571503000" lon="1.874230000">
        <ele>284.50</ele>
        <time>2011-04-11T17:27:24Z</time>
      </trkpt>
      <trkpt lat="41.571540000" lon="1.874218000">
        <ele>288.00</ele>
        <time>2011-04-11T17:27:27Z</time>
      </trkpt>
      <trkpt lat="41.571710000" lon="1.873927000">
        <ele>290.00</ele>
        <time>2011-04-11T17:27:41Z</time>
      </trkpt>
      <trkpt lat="41.571833000" lon="1.873358000">
        <ele>290.00</ele>
        <time>2011-04-11T17:27:57Z</time>
      </trkpt>
      <trkpt lat="41.571702000" lon="1.872918000">
        <ele>290.00</ele>
        <time>2011-04-11T17:28:07Z</time>
      </trkpt>
      <trkpt lat="41.571692000" lon="1.872605000">
        <ele>293.00</ele>
        <time>2011-04-11T17:28:18Z</time>
      </trkpt>
      <trkpt lat="41.571663000" lon="1.872523000">
        <ele>294.50</ele>
        <time>2011-04-11T17:28:21Z</time>
      </trkpt>
      <trkpt lat="41.571442000" lon="1.872177000">
        <ele>295.00</ele>
        <time>2011-04-11T17:28:37Z</time>
      </trkpt>
      <trkpt lat="41.571407000" lon="1.872032000">
        <ele>295.00</ele>
        <time>2011-04-11T17:28:42Z</time>
      </trkpt>
      <trkpt lat="41.571372000" lon="1.871792000">
        <ele>298.50</ele>
        <time>2011-04-11T17:28:51Z</time>
      </trkpt>
      <trkpt lat="41.571353000" lon="1.871622000">
        <ele>299.00</ele>
        <time>2011-04-11T17:28:56Z</time>
      </trkpt>
      <trkpt lat="41.571180000" lon="1.871217000">
        <ele>300.00</ele>
        <time>2011-04-11T17:29:07Z</time>
      </trkpt>
      <trkpt lat="41.571175000" lon="1.871112000">
        <ele>299.50</ele>
        <time>2011-04-11T17:29:08Z</time>
      </trkpt>
      <trkpt lat="41.571173000" lon="1.871068000">
        <ele>301.00</ele>
        <time>2011-04-11T17:29:10Z</time>
      </trkpt>
      <trkpt lat="41.571260000" lon="1.870823000">
        <ele>302.50</ele>
        <time>2011-04-11T17:29:15Z</time>
      </trkpt>
      <trkpt lat="41.571373000" lon="1.870292000">
        <ele>304.00</ele>
        <time>2011-04-11T17:29:26Z</time>
      </trkpt>
      <trkpt lat="41.571365000" lon="1.870230000">
        <ele>303.50</ele>
        <time>2011-04-11T17:29:26Z</time>
      </trkpt>
      <trkpt lat="41.570900000" lon="1.869662000">
        <ele>303.50</ele>
        <time>2011-04-11T17:29:41Z</time>
      </trkpt>
      <trkpt lat="41.570868000" lon="1.869522000">
        <ele>303.50</ele>
        <time>2011-04-11T17:29:43Z</time>
      </trkpt>
      <trkpt lat="41.570700000" lon="1.868783000">
        <ele>297.00</ele>
        <time>2011-04-11T17:29:54Z</time>
      </trkpt>
      <trkpt lat="41.570650000" lon="1.868727000">
        <ele>296.50</ele>
        <time>2011-04-11T17:29:54Z</time>
      </trkpt>
      <trkpt lat="41.570363000" lon="1.868555000">
        <ele>297.00</ele>
        <time>2011-04-11T17:29:59Z</time>
      </trkpt>
      <trkpt lat="41.570313000" lon="1.868523000">
        <ele>296.50</ele>
        <time>2011-04-11T17:30:01Z</time>
      </trkpt>
      <trkpt lat="41.570278000" lon="1.868472000">
        <ele>296.50</ele>
        <time>2011-04-11T17:30:01Z</time>
      </trkpt>
      <trkpt lat="41.570242000" lon="1.868412000">
        <ele>294.50</ele>
        <time>2011-04-11T17:30:02Z</time>
      </trkpt>
      <trkpt lat="41.570117000" lon="1.868203000">
        <ele>294.50</ele>
        <time>2011-04-11T17:30:06Z</time>
      </trkpt>
      <trkpt lat="41.569992000" lon="1.867945000">
        <ele>290.50</ele>
        <time>2011-04-11T17:30:09Z</time>
      </trkpt>
      <trkpt lat="41.569992000" lon="1.867767000">
        <ele>288.00</ele>
        <time>2011-04-11T17:30:11Z</time>
      </trkpt>
      <trkpt lat="41.570033000" lon="1.867402000">
        <ele>285.00</ele>
        <time>2011-04-11T17:30:16Z</time>
      </trkpt>
      <trkpt lat="41.570107000" lon="1.867140000">
        <ele>283.00</ele>
        <time>2011-04-11T17:30:18Z</time>
      </trkpt>
      <trkpt lat="41.570257000" lon="1.866807000">
        <ele>276.00</ele>
        <time>2011-04-11T17:30:23Z</time>
      </trkpt>
      <trkpt lat="41.570362000" lon="1.866640000">
        <ele>275.50</ele>
        <time>2011-04-11T17:30:25Z</time>
      </trkpt>
      <trkpt lat="41.571145000" lon="1.865875000">
        <ele>274.50</ele>
        <time>2011-04-11T17:30:39Z</time>
      </trkpt>
      <trkpt lat="41.571505000" lon="1.865767000">
        <ele>274.00</ele>
        <time>2011-04-11T17:30:48Z</time>
      </trkpt>
      <trkpt lat="41.571797000" lon="1.865908000">
        <ele>274.00</ele>
        <time>2011-04-11T17:30:55Z</time>
      </trkpt>
      <trkpt lat="41.571922000" lon="1.865920000">
        <ele>272.50</ele>
        <time>2011-04-11T17:30:58Z</time>
      </trkpt>
      <trkpt lat="41.572005000" lon="1.865995000">
        <ele>274.50</ele>
        <time>2011-04-11T17:31:00Z</time>
      </trkpt>
      <trkpt lat="41.572423000" lon="1.866257000">
        <ele>272.00</ele>
        <time>2011-04-11T17:31:07Z</time>
      </trkpt>
      <trkpt lat="41.572658000" lon="1.866280000">
        <ele>273.50</ele>
        <time>2011-04-11T17:31:14Z</time>
      </trkpt>
      <trkpt lat="41.572727000" lon="1.866278000">
        <ele>273.00</ele>
        <time>2011-04-11T17:31:16Z</time>
      </trkpt>
      <trkpt lat="41.573077000" lon="1.866183000">
        <ele>272.00</ele>
        <time>2011-04-11T17:31:26Z</time>
      </trkpt>
      <trkpt lat="41.573445000" lon="1.865883000">
        <ele>270.50</ele>
        <time>2011-04-11T17:31:38Z</time>
      </trkpt>
      <trkpt lat="41.573958000" lon="1.865505000">
        <ele>272.50</ele>
        <time>2011-04-11T17:31:56Z</time>
      </trkpt>
      <trkpt lat="41.574142000" lon="1.865320000">
        <ele>271.00</ele>
        <time>2011-04-11T17:32:01Z</time>
      </trkpt>
      <trkpt lat="41.574225000" lon="1.865230000">
        <ele>271.50</ele>
        <time>2011-04-11T17:32:04Z</time>
      </trkpt>
      <trkpt lat="41.574248000" lon="1.865195000">
        <ele>272.00</ele>
        <time>2011-04-11T17:32:04Z</time>
      </trkpt>
      <trkpt lat="41.574458000" lon="1.864675000">
        <ele>269.00</ele>
        <time>2011-04-11T17:32:15Z</time>
      </trkpt>
      <trkpt lat="41.574607000" lon="1.864400000">
        <ele>270.00</ele>
        <time>2011-04-11T17:32:18Z</time>
      </trkpt>
      <trkpt lat="41.574965000" lon="1.863697000">
        <ele>268.50</ele>
        <time>2011-04-11T17:32:29Z</time>
      </trkpt>
      <trkpt lat="41.575053000" lon="1.863628000">
        <ele>268.00</ele>
        <time>2011-04-11T17:32:30Z</time>
      </trkpt>
      <trkpt lat="41.575200000" lon="1.863542000">
        <ele>268.50</ele>
        <time>2011-04-11T17:32:34Z</time>
      </trkpt>
      <trkpt lat="41.575242000" lon="1.863537000">
        <ele>271.00</ele>
        <time>2011-04-11T17:32:36Z</time>
      </trkpt>
      <trkpt lat="41.575655000" lon="1.863295000">
        <ele>271.50</ele>
        <time>2011-04-11T17:32:55Z</time>
      </trkpt>
      <trkpt lat="41.575808000" lon="1.863177000">
        <ele>275.00</ele>
        <time>2011-04-11T17:33:02Z</time>
      </trkpt>
      <trkpt lat="41.575857000" lon="1.863147000">
        <ele>275.00</ele>
        <time>2011-04-11T17:33:05Z</time>
      </trkpt>
      <trkpt lat="41.575945000" lon="1.863048000">
        <ele>275.00</ele>
        <time>2011-04-11T17:33:09Z</time>
      </trkpt>
      <trkpt lat="41.576118000" lon="1.862773000">
        <ele>271.50</ele>
        <time>2011-04-11T17:33:16Z</time>
      </trkpt>
      <trkpt lat="41.576288000" lon="1.862580000">
        <ele>271.50</ele>
        <time>2011-04-11T17:33:23Z</time>
      </trkpt>
      <trkpt lat="41.576533000" lon="1.862485000">
        <ele>272.50</ele>
        <time>2011-04-11T17:33:30Z</time>
      </trkpt>
      <trkpt lat="41.576878000" lon="1.862285000">
        <ele>271.50</ele>
        <time>2011-04-11T17:33:37Z</time>
      </trkpt>
      <trkpt lat="41.577065000" lon="1.862055000">
        <ele>271.00</ele>
        <time>2011-04-11T17:33:42Z</time>
      </trkpt>
      <trkpt lat="41.577223000" lon="1.861880000">
        <ele>272.50</ele>
        <time>2011-04-11T17:33:47Z</time>
      </trkpt>
      <trkpt lat="41.577320000" lon="1.861838000">
        <ele>272.50</ele>
        <time>2011-04-11T17:33:49Z</time>
      </trkpt>
      <trkpt lat="41.577720000" lon="1.861653000">
        <ele>270.50</ele>
        <time>2011-04-11T17:33:56Z</time>
      </trkpt>
      <trkpt lat="41.577860000" lon="1.861540000">
        <ele>266.50</ele>
        <time>2011-04-11T17:33:58Z</time>
      </trkpt>
      <trkpt lat="41.578082000" lon="1.861557000">
        <ele>266.50</ele>
        <time>2011-04-11T17:34:01Z</time>
      </trkpt>
      <trkpt lat="41.578193000" lon="1.861468000">
        <ele>267.00</ele>
        <time>2011-04-11T17:34:03Z</time>
      </trkpt>
      <trkpt lat="41.578292000" lon="1.861438000">
        <ele>266.50</ele>
        <time>2011-04-11T17:34:05Z</time>
      </trkpt>
      <trkpt lat="41.578427000" lon="1.861445000">
        <ele>265.50</ele>
        <time>2011-04-11T17:34:06Z</time>
      </trkpt>
      <trkpt lat="41.578675000" lon="1.861532000">
        <ele>267.00</ele>
        <time>2011-04-11T17:34:10Z</time>
      </trkpt>
      <trkpt lat="41.578788000" lon="1.861557000">
        <ele>267.00</ele>
        <time>2011-04-11T17:34:13Z</time>
      </trkpt>
      <trkpt lat="41.579168000" lon="1.861490000">
        <ele>266.50</ele>
        <time>2011-04-11T17:34:20Z</time>
      </trkpt>
      <trkpt lat="41.579705000" lon="1.861535000">
        <ele>269.00</ele>
        <time>2011-04-11T17:34:29Z</time>
      </trkpt>
      <trkpt lat="41.579855000" lon="1.861420000">
        <ele>269.50</ele>
        <time>2011-04-11T17:34:34Z</time>
      </trkpt>
      <trkpt lat="41.580223000" lon="1.861452000">
        <ele>271.50</ele>
        <time>2011-04-11T17:34:43Z</time>
      </trkpt>
      <trkpt lat="41.580295000" lon="1.861473000">
        <ele>271.00</ele>
        <time>2011-04-11T17:34:46Z</time>
      </trkpt>
      <trkpt lat="41.580773000" lon="1.861322000">
        <ele>271.00</ele>
        <time>2011-04-11T17:35:00Z</time>
      </trkpt>
      <trkpt lat="41.580910000" lon="1.861267000">
        <ele>268.00</ele>
        <time>2011-04-11T17:35:02Z</time>
      </trkpt>
      <trkpt lat="41.581092000" lon="1.861215000">
        <ele>269.50</ele>
        <time>2011-04-11T17:35:07Z</time>
      </trkpt>
      <trkpt lat="41.581297000" lon="1.860943000">
        <ele>268.50</ele>
        <time>2011-04-11T17:35:14Z</time>
      </trkpt>
      <trkpt lat="41.581322000" lon="1.860903000">
        <ele>270.00</ele>
        <time>2011-04-11T17:35:14Z</time>
      </trkpt>
      <trkpt lat="41.581443000" lon="1.860743000">
        <ele>270.50</ele>
        <time>2011-04-11T17:35:18Z</time>
      </trkpt>
      <trkpt lat="41.581580000" lon="1.860633000">
        <ele>271.00</ele>
        <time>2011-04-11T17:35:23Z</time>
      </trkpt>
      <trkpt lat="41.581935000" lon="1.860397000">
        <ele>270.50</ele>
        <time>2011-04-11T17:35:32Z</time>
      </trkpt>
      <trkpt lat="41.582217000" lon="1.860025000">
        <ele>269.00</ele>
        <time>2011-04-11T17:35:39Z</time>
      </trkpt>
      <trkpt lat="41.582815000" lon="1.859273000">
        <ele>270.50</ele>
        <time>2011-04-11T17:35:54Z</time>
      </trkpt>
      <trkpt lat="41.583005000" lon="1.859038000">
        <ele>270.50</ele>
        <time>2011-04-11T17:36:00Z</time>
      </trkpt>
      <trkpt lat="41.583293000" lon="1.858547000">
        <ele>270.00</ele>
        <time>2011-04-11T17:36:10Z</time>
      </trkpt>
      <trkpt lat="41.583635000" lon="1.858415000">
        <ele>270.00</ele>
        <time>2011-04-11T17:36:19Z</time>
      </trkpt>
      <trkpt lat="41.583925000" lon="1.858180000">
        <ele>270.00</ele>
        <time>2011-04-11T17:36:27Z</time>
      </trkpt>
      <trkpt lat="41.584342000" lon="1.857607000">
        <ele>269.50</ele>
        <time>2011-04-11T17:36:41Z</time>
      </trkpt>
      <trkpt lat="41.584657000" lon="1.857335000">
        <ele>269.00</ele>
        <time>2011-04-11T17:36:50Z</time>
      </trkpt>
      <trkpt lat="41.586365000" lon="1.855767000">
        <ele>270.00</ele>
        <time>2011-04-11T17:37:42Z</time>
      </trkpt>
      <trkpt lat="41.586458000" lon="1.855817000">
        <ele>270.00</ele>
        <time>2011-04-11T17:37:46Z</time>
      </trkpt>
      <trkpt lat="41.586645000" lon="1.855762000">
        <ele>269.50</ele>
        <time>2011-04-11T17:37:53Z</time>
      </trkpt>
      <trkpt lat="41.587110000" lon="1.855512000">
        <ele>269.50</ele>
        <time>2011-04-11T17:38:07Z</time>
      </trkpt>
      <trkpt lat="41.587265000" lon="1.855605000">
        <ele>269.50</ele>
        <time>2011-04-11T17:38:12Z</time>
      </trkpt>
      <trkpt lat="41.587623000" lon="1.855332000">
        <ele>269.50</ele>
        <time>2011-04-11T17:38:22Z</time>
      </trkpt>
      <trkpt lat="41.587853000" lon="1.855363000">
        <ele>269.50</ele>
        <time>2011-04-11T17:38:28Z</time>
      </trkpt>
      <trkpt lat="41.588318000" lon="1.854840000">
        <ele>269.50</ele>
        <time>2011-04-11T17:38:42Z</time>
      </trkpt>
      <trkpt lat="41.588660000" lon="1.854577000">
        <ele>269.50</ele>
        <time>2011-04-11T17:38:52Z</time>
      </trkpt>
      <trkpt lat="41.588953000" lon="1.854502000">
        <ele>269.50</ele>
        <time>2011-04-11T17:38:59Z</time>
      </trkpt>
      <trkpt lat="41.589292000" lon="1.854097000">
        <ele>269.50</ele>
        <time>2011-04-11T17:39:11Z</time>
      </trkpt>
      <trkpt lat="41.591035000" lon="1.852597000">
        <ele>269.50</ele>
        <time>2011-04-11T17:40:02Z</time>
      </trkpt>
      <trkpt lat="41.591582000" lon="1.852643000">
        <ele>269.50</ele>
        <time>2011-04-11T17:40:12Z</time>
      </trkpt>
      <trkpt lat="41.592042000" lon="1.853023000">
        <ele>269.50</ele>
        <time>2011-04-11T17:40:21Z</time>
      </trkpt>
      <trkpt lat="41.592303000" lon="1.853423000">
        <ele>269.50</ele>
        <time>2011-04-11T17:40:31Z</time>
      </trkpt>
      <trkpt lat="41.592263000" lon="1.853520000">
        <ele>269.50</ele>
        <time>2011-04-11T17:40:33Z</time>
      </trkpt>
      <trkpt lat="41.592458000" lon="1.854432000">
        <ele>269.50</ele>
        <time>2011-04-11T17:40:52Z</time>
      </trkpt>
      <trkpt lat="41.592718000" lon="1.854695000">
        <ele>269.50</ele>
        <time>2011-04-11T17:40:59Z</time>
      </trkpt>
      <trkpt lat="41.592757000" lon="1.854897000">
        <ele>269.50</ele>
        <time>2011-04-11T17:41:03Z</time>
      </trkpt>
      <trkpt lat="41.592917000" lon="1.854950000">
        <ele>269.50</ele>
        <time>2011-04-11T17:41:04Z</time>
      </trkpt>
      <trkpt lat="41.592970000" lon="1.855105000">
        <ele>269.50</ele>
        <time>2011-04-11T17:41:08Z</time>
      </trkpt>
      <trkpt lat="41.593207000" lon="1.855117000">
        <ele>269.50</ele>
        <time>2011-04-11T17:41:11Z</time>
      </trkpt>
      <trkpt lat="41.593528000" lon="1.855262000">
        <ele>269.50</ele>
        <time>2011-04-11T17:41:20Z</time>
      </trkpt>
      <trkpt lat="41.593910000" lon="1.855642000">
        <ele>269.50</ele>
        <time>2011-04-11T17:41:32Z</time>
      </trkpt>
      <trkpt lat="41.594742000" lon="1.855900000">
        <ele>269.50</ele>
        <time>2011-04-11T17:41:50Z</time>
      </trkpt>
      <trkpt lat="41.595803000" lon="1.855617000">
        <ele>269.50</ele>
        <time>2011-04-11T17:42:11Z</time>
      </trkpt>
      <trkpt lat="41.596777000" lon="1.855203000">
        <ele>269.50</ele>
        <time>2011-04-11T17:42:30Z</time>
      </trkpt>
      <trkpt lat="41.597077000" lon="1.854978000">
        <ele>269.50</ele>
        <time>2011-04-11T17:42:35Z</time>
      </trkpt>
      <trkpt lat="41.597553000" lon="1.854355000">
        <ele>269.50</ele>
        <time>2011-04-11T17:42:47Z</time>
      </trkpt>
      <trkpt lat="41.598780000" lon="1.852293000">
        <ele>269.50</ele>
        <time>2011-04-11T17:43:41Z</time>
      </trkpt>
      <trkpt lat="41.599072000" lon="1.852058000">
        <ele>269.50</ele>
        <time>2011-04-11T17:43:53Z</time>
      </trkpt>
      <trkpt lat="41.599458000" lon="1.851898000">
        <ele>269.50</ele>
        <time>2011-04-11T17:44:04Z</time>
      </trkpt>
      <trkpt lat="41.599725000" lon="1.851870000">
        <ele>269.50</ele>
        <time>2011-04-11T17:44:11Z</time>
      </trkpt>
      <trkpt lat="41.600085000" lon="1.851952000">
        <ele>269.50</ele>
        <time>2011-04-11T17:44:18Z</time>
      </trkpt>
      <trkpt lat="41.600968000" lon="1.852563000">
        <ele>269.50</ele>
        <time>2011-04-11T17:44:30Z</time>
      </trkpt>
      <trkpt lat="41.601212000" lon="1.852992000">
        <ele>269.50</ele>
        <time>2011-04-11T17:44:35Z</time>
      </trkpt>
      <trkpt lat="41.602007000" lon="1.853845000">
        <ele>269.50</ele>
        <time>2011-04-11T17:44:53Z</time>
      </trkpt>
      <trkpt lat="41.602145000" lon="1.854135000">
        <ele>269.50</ele>
        <time>2011-04-11T17:44:58Z</time>
      </trkpt>
      <trkpt lat="41.603067000" lon="1.854022000">
        <ele>269.50</ele>
        <time>2011-04-11T17:45:15Z</time>
      </trkpt>
      <trkpt lat="41.603573000" lon="1.853782000">
        <ele>269.50</ele>
        <time>2011-04-11T17:45:26Z</time>
      </trkpt>
      <trkpt lat="41.604727000" lon="1.852997000">
        <ele>269.50</ele>
        <time>2011-04-11T17:45:48Z</time>
      </trkpt>
      <trkpt lat="41.606400000" lon="1.851175000">
        <ele>270.00</ele>
        <time>2011-04-11T17:46:28Z</time>
      </trkpt>
      <trkpt lat="41.606907000" lon="1.850442000">
        <ele>269.50</ele>
        <time>2011-04-11T17:46:42Z</time>
      </trkpt>
      <trkpt lat="41.607105000" lon="1.850287000">
        <ele>270.00</ele>
        <time>2011-04-11T17:46:48Z</time>
      </trkpt>
      <trkpt lat="41.607885000" lon="1.850023000">
        <ele>269.50</ele>
        <time>2011-04-11T17:47:07Z</time>
      </trkpt>
      <trkpt lat="41.608498000" lon="1.849395000">
        <ele>269.50</ele>
        <time>2011-04-11T17:47:28Z</time>
      </trkpt>
      <trkpt lat="41.608865000" lon="1.848920000">
        <ele>270.00</ele>
        <time>2011-04-11T17:47:40Z</time>
      </trkpt>
      <trkpt lat="41.609582000" lon="1.848300000">
        <ele>270.00</ele>
        <time>2011-04-11T17:47:57Z</time>
      </trkpt>
      <trkpt lat="41.610328000" lon="1.847360000">
        <ele>270.00</ele>
        <time>2011-04-11T17:48:23Z</time>
      </trkpt>
      <trkpt lat="41.610615000" lon="1.847120000">
        <ele>270.00</ele>
        <time>2011-04-11T17:48:30Z</time>
      </trkpt>
      <trkpt lat="41.610982000" lon="1.846953000">
        <ele>270.00</ele>
        <time>2011-04-11T17:48:37Z</time>
      </trkpt>
      <trkpt lat="41.611953000" lon="1.846768000">
        <ele>270.00</ele>
        <time>2011-04-11T17:48:56Z</time>
      </trkpt>
      <trkpt lat="41.612203000" lon="1.846480000">
        <ele>270.00</ele>
        <time>2011-04-11T17:49:03Z</time>
      </trkpt>
      <trkpt lat="41.612730000" lon="1.846295000">
        <ele>270.00</ele>
        <time>2011-04-11T17:49:23Z</time>
      </trkpt>
      <trkpt lat="41.613007000" lon="1.846370000">
        <ele>270.00</ele>
        <time>2011-04-11T17:49:33Z</time>
      </trkpt>
      <trkpt lat="41.612988000" lon="1.846490000">
        <ele>270.00</ele>
        <time>2011-04-11T17:49:36Z</time>
      </trkpt>
      <trkpt lat="41.612845000" lon="1.846570000">
        <ele>270.00</ele>
        <time>2011-04-11T17:49:45Z</time>
      </trkpt>
      <trkpt lat="41.612993000" lon="1.846448000">
        <ele>270.00</ele>
        <time>2011-04-11T17:49:49Z</time>
      </trkpt>
      <trkpt lat="41.612955000" lon="1.846738000">
        <ele>270.00</ele>
        <time>2011-04-11T17:49:54Z</time>
      </trkpt>
      <trkpt lat="41.612545000" lon="1.847030000">
        <ele>270.00</ele>
        <time>2011-04-11T17:50:08Z</time>
      </trkpt>
      <trkpt lat="41.611993000" lon="1.846992000">
        <ele>270.00</ele>
        <time>2011-04-11T17:50:30Z</time>
      </trkpt>
      <trkpt lat="41.611743000" lon="1.846848000">
        <ele>270.00</ele>
        <time>2011-04-11T17:50:39Z</time>
      </trkpt>
      <trkpt lat="41.611445000" lon="1.846967000">
        <ele>270.00</ele>
        <time>2011-04-11T17:50:48Z</time>
      </trkpt>
      <trkpt lat="41.611060000" lon="1.847545000">
        <ele>270.50</ele>
        <time>2011-04-11T17:51:00Z</time>
      </trkpt>
      <trkpt lat="41.610778000" lon="1.847797000">
        <ele>270.50</ele>
        <time>2011-04-11T17:51:12Z</time>
      </trkpt>
      <trkpt lat="41.610695000" lon="1.848045000">
        <ele>270.50</ele>
        <time>2011-04-11T17:51:17Z</time>
      </trkpt>
      <trkpt lat="41.610375000" lon="1.848148000">
        <ele>270.50</ele>
        <time>2011-04-11T17:51:24Z</time>
      </trkpt>
      <trkpt lat="41.609965000" lon="1.848718000">
        <ele>270.50</ele>
        <time>2011-04-11T17:51:40Z</time>
      </trkpt>
      <trkpt lat="41.609435000" lon="1.849227000">
        <ele>270.50</ele>
        <time>2011-04-11T17:51:56Z</time>
      </trkpt>
      <trkpt lat="41.609047000" lon="1.849445000">
        <ele>271.00</ele>
        <time>2011-04-11T17:52:06Z</time>
      </trkpt>
      <trkpt lat="41.609182000" lon="1.849240000">
        <ele>271.50</ele>
        <time>2011-04-11T17:52:10Z</time>
      </trkpt>
      <trkpt lat="41.609338000" lon="1.848952000">
        <ele>270.50</ele>
        <time>2011-04-11T17:52:15Z</time>
      </trkpt>
      <trkpt lat="41.609297000" lon="1.848912000">
        <ele>270.00</ele>
        <time>2011-04-11T17:52:17Z</time>
      </trkpt>
      <trkpt lat="41.609145000" lon="1.849047000">
        <ele>270.50</ele>
        <time>2011-04-11T17:52:20Z</time>
      </trkpt>
      <trkpt lat="41.608923000" lon="1.848885000">
        <ele>271.00</ele>
        <time>2011-04-11T17:52:27Z</time>
      </trkpt>
      <trkpt lat="41.607910000" lon="1.849950000">
        <ele>270.50</ele>
        <time>2011-04-11T17:52:53Z</time>
      </trkpt>
      <trkpt lat="41.606958000" lon="1.850325000">
        <ele>270.50</ele>
        <time>2011-04-11T17:53:07Z</time>
      </trkpt>
      <trkpt lat="41.605652000" lon="1.851758000">
        <ele>271.00</ele>
        <time>2011-04-11T17:53:35Z</time>
      </trkpt>
      <trkpt lat="41.605622000" lon="1.851963000">
        <ele>271.00</ele>
        <time>2011-04-11T17:53:39Z</time>
      </trkpt>
      <trkpt lat="41.604725000" lon="1.852815000">
        <ele>271.00</ele>
        <time>2011-04-11T17:53:58Z</time>
      </trkpt>
      <trkpt lat="41.603480000" lon="1.853608000">
        <ele>271.50</ele>
        <time>2011-04-11T17:54:24Z</time>
      </trkpt>
      <trkpt lat="41.603443000" lon="1.853637000">
        <ele>271.50</ele>
        <time>2011-04-11T17:54:24Z</time>
      </trkpt>
      <trkpt lat="41.603385000" lon="1.853762000">
        <ele>272.50</ele>
        <time>2011-04-11T17:54:26Z</time>
      </trkpt>
      <trkpt lat="41.602932000" lon="1.853947000">
        <ele>272.50</ele>
        <time>2011-04-11T17:54:38Z</time>
      </trkpt>
      <trkpt lat="41.602883000" lon="1.853955000">
        <ele>273.00</ele>
        <time>2011-04-11T17:54:38Z</time>
      </trkpt>
      <trkpt lat="41.602365000" lon="1.853885000">
        <ele>273.00</ele>
        <time>2011-04-11T17:54:50Z</time>
      </trkpt>
      <trkpt lat="41.602263000" lon="1.853713000">
        <ele>273.00</ele>
        <time>2011-04-11T17:54:52Z</time>
      </trkpt>
      <trkpt lat="41.601868000" lon="1.853397000">
        <ele>273.50</ele>
        <time>2011-04-11T17:54:59Z</time>
      </trkpt>
      <trkpt lat="41.601962000" lon="1.852887000">
        <ele>273.50</ele>
        <time>2011-04-11T17:55:04Z</time>
      </trkpt>
      <trkpt lat="41.601613000" lon="1.852317000">
        <ele>273.50</ele>
        <time>2011-04-11T17:55:14Z</time>
      </trkpt>
      <trkpt lat="41.600183000" lon="1.851767000">
        <ele>274.00</ele>
        <time>2011-04-11T17:55:44Z</time>
      </trkpt>
      <trkpt lat="41.599763000" lon="1.851735000">
        <ele>275.00</ele>
        <time>2011-04-11T17:55:56Z</time>
      </trkpt>
      <trkpt lat="41.599148000" lon="1.851925000">
        <ele>275.00</ele>
        <time>2011-04-11T17:56:14Z</time>
      </trkpt>
      <trkpt lat="41.598838000" lon="1.852198000">
        <ele>275.00</ele>
        <time>2011-04-11T17:56:21Z</time>
      </trkpt>
      <trkpt lat="41.598543000" lon="1.852637000">
        <ele>275.50</ele>
        <time>2011-04-11T17:56:28Z</time>
      </trkpt>
      <trkpt lat="41.598103000" lon="1.853202000">
        <ele>275.50</ele>
        <time>2011-04-11T17:56:36Z</time>
      </trkpt>
      <trkpt lat="41.597605000" lon="1.854138000">
        <ele>275.50</ele>
        <time>2011-04-11T17:56:47Z</time>
      </trkpt>
      <trkpt lat="41.596790000" lon="1.855135000">
        <ele>275.50</ele>
        <time>2011-04-11T17:57:06Z</time>
      </trkpt>
      <trkpt lat="41.595820000" lon="1.855560000">
        <ele>275.50</ele>
        <time>2011-04-11T17:57:27Z</time>
      </trkpt>
      <trkpt lat="41.594953000" lon="1.855808000">
        <ele>275.50</ele>
        <time>2011-04-11T17:57:44Z</time>
      </trkpt>
      <trkpt lat="41.594633000" lon="1.855800000">
        <ele>275.50</ele>
        <time>2011-04-11T17:57:53Z</time>
      </trkpt>
      <trkpt lat="41.593852000" lon="1.855492000">
        <ele>276.00</ele>
        <time>2011-04-11T17:58:10Z</time>
      </trkpt>
      <trkpt lat="41.593235000" lon="1.854683000">
        <ele>276.00</ele>
        <time>2011-04-11T17:58:26Z</time>
      </trkpt>
      <trkpt lat="41.593053000" lon="1.854245000">
        <ele>276.00</ele>
        <time>2011-04-11T17:58:33Z</time>
      </trkpt>
      <trkpt lat="41.593105000" lon="1.854032000">
        <ele>276.00</ele>
        <time>2011-04-11T17:58:35Z</time>
      </trkpt>
      <trkpt lat="41.593058000" lon="1.853508000">
        <ele>276.00</ele>
        <time>2011-04-11T17:58:43Z</time>
      </trkpt>
      <trkpt lat="41.592525000" lon="1.852403000">
        <ele>276.50</ele>
        <time>2011-04-11T17:58:56Z</time>
      </trkpt>
      <trkpt lat="41.591752000" lon="1.852060000">
        <ele>276.50</ele>
        <time>2011-04-11T17:59:15Z</time>
      </trkpt>
      <trkpt lat="41.591358000" lon="1.852303000">
        <ele>276.50</ele>
        <time>2011-04-11T17:59:41Z</time>
      </trkpt>
      <trkpt lat="41.591430000" lon="1.852622000">
        <ele>276.50</ele>
        <time>2011-04-11T18:00:09Z</time>
      </trkpt>
      <trkpt lat="41.591332000" lon="1.852578000">
        <ele>276.50</ele>
        <time>2011-04-11T18:00:30Z</time>
      </trkpt>
      <trkpt lat="41.591322000" lon="1.852727000">
        <ele>276.50</ele>
        <time>2011-04-11T18:00:49Z</time>
      </trkpt>
      <trkpt lat="41.591387000" lon="1.852782000">
        <ele>276.50</ele>
        <time>2011-04-11T18:00:54Z</time>
      </trkpt>
      <trkpt lat="41.591452000" lon="1.852718000">
        <ele>276.50</ele>
        <time>2011-04-11T18:01:08Z</time>
      </trkpt>
      <trkpt lat="41.591478000" lon="1.852822000">
        <ele>276.50</ele>
        <time>2011-04-11T18:01:20Z</time>
      </trkpt>
      <trkpt lat="41.591372000" lon="1.852858000">
        <ele>276.50</ele>
        <time>2011-04-11T18:01:39Z</time>
      </trkpt>
      <trkpt lat="41.591338000" lon="1.852802000">
        <ele>276.50</ele>
        <time>2011-04-11T18:01:45Z</time>
      </trkpt>
      <trkpt lat="41.591362000" lon="1.852878000">
        <ele>276.50</ele>
        <time>2011-04-11T18:01:48Z</time>
      </trkpt>
      <trkpt lat="41.591433000" lon="1.852825000">
        <ele>276.50</ele>
        <time>2011-04-11T18:01:55Z</time>
      </trkpt>
      <trkpt lat="41.591410000" lon="1.852877000">
        <ele>276.50</ele>
        <time>2011-04-11T18:02:11Z</time>
      </trkpt>
      <trkpt lat="41.591292000" lon="1.852692000">
        <ele>276.50</ele>
        <time>2011-04-11T18:02:37Z</time>
      </trkpt>
      <trkpt lat="41.591395000" lon="1.852747000">
        <ele>276.50</ele>
        <time>2011-04-11T18:02:58Z</time>
      </trkpt>
      <trkpt lat="41.591328000" lon="1.853207000">
        <ele>276.50</ele>
        <time>2011-04-11T18:03:24Z</time>
      </trkpt>
      <trkpt lat="41.591172000" lon="1.853173000">
        <ele>276.50</ele>
        <time>2011-04-11T18:03:40Z</time>
      </trkpt>
      <trkpt lat="41.589880000" lon="1.853888000">
        <ele>272.50</ele>
        <time>2011-04-11T18:04:37Z</time>
      </trkpt>
      <trkpt lat="41.589920000" lon="1.853982000">
        <ele>268.00</ele>
        <time>2011-04-11T18:04:39Z</time>
      </trkpt>
      <trkpt lat="41.589862000" lon="1.853793000">
        <ele>266.00</ele>
        <time>2011-04-11T18:04:47Z</time>
      </trkpt>
      <trkpt lat="41.589870000" lon="1.853983000">
        <ele>266.00</ele>
        <time>2011-04-11T18:04:54Z</time>
      </trkpt>
      <trkpt lat="41.589697000" lon="1.854200000">
        <ele>266.00</ele>
        <time>2011-04-11T18:05:05Z</time>
      </trkpt>
      <trkpt lat="41.589583000" lon="1.854207000">
        <ele>266.00</ele>
        <time>2011-04-11T18:05:10Z</time>
      </trkpt>
      <trkpt lat="41.589487000" lon="1.854413000">
        <ele>266.00</ele>
        <time>2011-04-11T18:05:14Z</time>
      </trkpt>
      <trkpt lat="41.589487000" lon="1.854755000">
        <ele>266.00</ele>
        <time>2011-04-11T18:05:24Z</time>
      </trkpt>
      <trkpt lat="41.589430000" lon="1.854547000">
        <ele>266.00</ele>
        <time>2011-04-11T18:05:45Z</time>
      </trkpt>
      <trkpt lat="41.589217000" lon="1.854517000">
        <ele>266.00</ele>
        <time>2011-04-11T18:05:57Z</time>
      </trkpt>
      <trkpt lat="41.589078000" lon="1.854658000">
        <ele>266.00</ele>
        <time>2011-04-11T18:06:04Z</time>
      </trkpt>
      <trkpt lat="41.588973000" lon="1.854595000">
        <ele>266.00</ele>
        <time>2011-04-11T18:06:09Z</time>
      </trkpt>
      <trkpt lat="41.588888000" lon="1.854647000">
        <ele>266.00</ele>
        <time>2011-04-11T18:06:13Z</time>
      </trkpt>
      <trkpt lat="41.588745000" lon="1.854867000">
        <ele>266.00</ele>
        <time>2011-04-11T18:06:23Z</time>
      </trkpt>
      <trkpt lat="41.588047000" lon="1.854987000">
        <ele>266.00</ele>
        <time>2011-04-11T18:06:46Z</time>
      </trkpt>
      <trkpt lat="41.587978000" lon="1.855075000">
        <ele>266.00</ele>
        <time>2011-04-11T18:06:51Z</time>
      </trkpt>
      <trkpt lat="41.588035000" lon="1.855185000">
        <ele>266.00</ele>
        <time>2011-04-11T18:06:53Z</time>
      </trkpt>
      <trkpt lat="41.587965000" lon="1.855402000">
        <ele>266.00</ele>
        <time>2011-04-11T18:07:00Z</time>
      </trkpt>
      <trkpt lat="41.587815000" lon="1.855413000">
        <ele>266.00</ele>
        <time>2011-04-11T18:07:05Z</time>
      </trkpt>
      <trkpt lat="41.587718000" lon="1.855298000">
        <ele>266.00</ele>
        <time>2011-04-11T18:07:21Z</time>
      </trkpt>
      <trkpt lat="41.587535000" lon="1.855402000">
        <ele>266.00</ele>
        <time>2011-04-11T18:07:35Z</time>
      </trkpt>
      <trkpt lat="41.587315000" lon="1.855825000">
        <ele>266.00</ele>
        <time>2011-04-11T18:07:43Z</time>
      </trkpt>
      <trkpt lat="41.587183000" lon="1.855895000">
        <ele>266.00</ele>
        <time>2011-04-11T18:07:52Z</time>
      </trkpt>
      <trkpt lat="41.587217000" lon="1.856108000">
        <ele>266.00</ele>
        <time>2011-04-11T18:07:59Z</time>
      </trkpt>
      <trkpt lat="41.587048000" lon="1.856323000">
        <ele>266.00</ele>
        <time>2011-04-11T18:08:32Z</time>
      </trkpt>
      <trkpt lat="41.586808000" lon="1.856212000">
        <ele>266.00</ele>
        <time>2011-04-11T18:08:46Z</time>
      </trkpt>
      <trkpt lat="41.586573000" lon="1.856462000">
        <ele>266.00</ele>
        <time>2011-04-11T18:09:02Z</time>
      </trkpt>
      <trkpt lat="41.586523000" lon="1.857490000">
        <ele>266.00</ele>
        <time>2011-04-11T18:09:23Z</time>
      </trkpt>
      <trkpt lat="41.586385000" lon="1.857935000">
        <ele>266.00</ele>
        <time>2011-04-11T18:09:37Z</time>
      </trkpt>
      <trkpt lat="41.586068000" lon="1.857902000">
        <ele>266.00</ele>
        <time>2011-04-11T18:09:45Z</time>
      </trkpt>
      <trkpt lat="41.585743000" lon="1.857502000">
        <ele>266.50</ele>
        <time>2011-04-11T18:10:06Z</time>
      </trkpt>
      <trkpt lat="41.585540000" lon="1.857522000">
        <ele>266.50</ele>
        <time>2011-04-11T18:10:10Z</time>
      </trkpt>
      <trkpt lat="41.584778000" lon="1.858372000">
        <ele>266.50</ele>
        <time>2011-04-11T18:10:43Z</time>
      </trkpt>
      <trkpt lat="41.584390000" lon="1.858613000">
        <ele>266.00</ele>
        <time>2011-04-11T18:10:50Z</time>
      </trkpt>
      <trkpt lat="41.584812000" lon="1.859765000">
        <ele>266.50</ele>
        <time>2011-04-11T18:11:16Z</time>
      </trkpt>
      <trkpt lat="41.584795000" lon="1.860443000">
        <ele>266.50</ele>
        <time>2011-04-11T18:11:35Z</time>
      </trkpt>
      <trkpt lat="41.584688000" lon="1.860680000">
        <ele>266.50</ele>
        <time>2011-04-11T18:11:47Z</time>
      </trkpt>
      <trkpt lat="41.584485000" lon="1.860278000">
        <ele>266.50</ele>
        <time>2011-04-11T18:12:05Z</time>
      </trkpt>
      <trkpt lat="41.584198000" lon="1.860063000">
        <ele>266.50</ele>
        <time>2011-04-11T18:12:12Z</time>
      </trkpt>
      <trkpt lat="41.584102000" lon="1.859870000">
        <ele>266.50</ele>
        <time>2011-04-11T18:12:19Z</time>
      </trkpt>
      <trkpt lat="41.583668000" lon="1.860247000">
        <ele>266.50</ele>
        <time>2011-04-11T18:12:36Z</time>
      </trkpt>
      <trkpt lat="41.583522000" lon="1.860245000">
        <ele>266.50</ele>
        <time>2011-04-11T18:12:43Z</time>
      </trkpt>
      <trkpt lat="41.583223000" lon="1.860153000">
        <ele>266.50</ele>
        <time>2011-04-11T18:13:07Z</time>
      </trkpt>
      <trkpt lat="41.583193000" lon="1.859857000">
        <ele>266.50</ele>
        <time>2011-04-11T18:13:28Z</time>
      </trkpt>
      <trkpt lat="41.583295000" lon="1.859888000">
        <ele>266.50</ele>
        <time>2011-04-11T18:13:32Z</time>
      </trkpt>
      <trkpt lat="41.583277000" lon="1.859998000">
        <ele>266.50</ele>
        <time>2011-04-11T18:13:39Z</time>
      </trkpt>
      <trkpt lat="41.583142000" lon="1.860033000">
        <ele>266.50</ele>
        <time>2011-04-11T18:13:42Z</time>
      </trkpt>
      <trkpt lat="41.583087000" lon="1.859965000">
        <ele>266.50</ele>
        <time>2011-04-11T18:13:46Z</time>
      </trkpt>
      <trkpt lat="41.583045000" lon="1.860022000">
        <ele>266.50</ele>
        <time>2011-04-11T18:13:51Z</time>
      </trkpt>
      <trkpt lat="41.583188000" lon="1.859823000">
        <ele>266.50</ele>
        <time>2011-04-11T18:14:07Z</time>
      </trkpt>
      <trkpt lat="41.583192000" lon="1.860248000">
        <ele>266.50</ele>
        <time>2011-04-11T18:14:36Z</time>
      </trkpt>
      <trkpt lat="41.583183000" lon="1.860230000">
        <ele>266.50</ele>
        <time>2011-04-11T18:14:43Z</time>
      </trkpt>
      <trkpt lat="41.583057000" lon="1.860098000">
        <ele>268.00</ele>
        <time>2011-04-11T18:14:47Z</time>
      </trkpt>
      <trkpt lat="41.583053000" lon="1.860112000">
        <ele>268.50</ele>
        <time>2011-04-11T18:14:48Z</time>
      </trkpt>
      <trkpt lat="41.583128000" lon="1.860163000">
        <ele>268.50</ele>
        <time>2011-04-11T18:15:37Z</time>
      </trkpt>
      <trkpt lat="41.583085000" lon="1.860367000">
        <ele>268.50</ele>
        <time>2011-04-11T18:16:16Z</time>
      </trkpt>
      <trkpt lat="41.583062000" lon="1.860255000">
        <ele>268.50</ele>
        <time>2011-04-11T18:16:21Z</time>
      </trkpt>
      <trkpt lat="41.583287000" lon="1.860080000">
        <ele>268.50</ele>
        <time>2011-04-11T18:16:35Z</time>
      </trkpt>
      <trkpt lat="41.583102000" lon="1.860430000">
        <ele>268.50</ele>
        <time>2011-04-11T18:16:52Z</time>
      </trkpt>
      <trkpt lat="41.583180000" lon="1.860422000">
        <ele>268.50</ele>
        <time>2011-04-11T18:16:59Z</time>
      </trkpt>
      <trkpt lat="41.583172000" lon="1.860128000">
        <ele>268.50</ele>
        <time>2011-04-11T18:17:37Z</time>
      </trkpt>
      <trkpt lat="41.583333000" lon="1.860000000">
        <ele>268.50</ele>
        <time>2011-04-11T18:17:48Z</time>
      </trkpt>
      <trkpt lat="41.583297000" lon="1.859920000">
        <ele>268.50</ele>
        <time>2011-04-11T18:17:53Z</time>
      </trkpt>
      <trkpt lat="41.582972000" lon="1.860018000">
        <ele>268.50</ele>
        <time>2011-04-11T18:18:02Z</time>
      </trkpt>
      <trkpt lat="41.583055000" lon="1.860108000">
        <ele>269.00</ele>
        <time>2011-04-11T18:18:16Z</time>
      </trkpt>
      <trkpt lat="41.582908000" lon="1.860795000">
        <ele>269.00</ele>
        <time>2011-04-11T18:19:10Z</time>
      </trkpt>
      <trkpt lat="41.582948000" lon="1.860693000">
        <ele>269.00</ele>
        <time>2011-04-11T18:19:20Z</time>
      </trkpt>
      <trkpt lat="41.582958000" lon="1.860793000">
        <ele>269.00</ele>
        <time>2011-04-11T18:19:31Z</time>
      </trkpt>
      <trkpt lat="41.583100000" lon="1.860832000">
        <ele>269.00</ele>
        <time>2011-04-11T18:19:46Z</time>
      </trkpt>
      <trkpt lat="41.583205000" lon="1.860762000">
        <ele>269.00</ele>
        <time>2011-04-11T18:20:06Z</time>
      </trkpt>
      <trkpt lat="41.582908000" lon="1.860550000">
        <ele>269.00</ele>
        <time>2011-04-11T18:20:40Z</time>
      </trkpt>
      <trkpt lat="41.582888000" lon="1.860753000">
        <ele>269.00</ele>
        <time>2011-04-11T18:21:05Z</time>
      </trkpt>
      <trkpt lat="41.582968000" lon="1.860865000">
        <ele>269.00</ele>
        <time>2011-04-11T18:21:33Z</time>
      </trkpt>
      <trkpt lat="41.582967000" lon="1.860862000">
        <ele>269.00</ele>
        <time>2011-04-11T18:21:34Z</time>
      </trkpt>
      <trkpt lat="41.582998000" lon="1.860802000">
        <ele>269.50</ele>
        <time>2011-04-11T18:21:38Z</time>
      </trkpt>
      <trkpt lat="41.582400000" lon="1.860897000">
        <ele>269.50</ele>
        <time>2011-04-11T18:22:06Z</time>
      </trkpt>
      <trkpt lat="41.582068000" lon="1.861385000">
        <ele>270.00</ele>
        <time>2011-04-11T18:22:18Z</time>
      </trkpt>
      <trkpt lat="41.581662000" lon="1.862360000">
        <ele>271.50</ele>
        <time>2011-04-11T18:22:37Z</time>
      </trkpt>
      <trkpt lat="41.581372000" lon="1.862178000">
        <ele>271.50</ele>
        <time>2011-04-11T18:22:46Z</time>
      </trkpt>
      <trkpt lat="41.581115000" lon="1.862192000">
        <ele>271.50</ele>
        <time>2011-04-11T18:22:49Z</time>
      </trkpt>
      <trkpt lat="41.580853000" lon="1.862447000">
        <ele>272.50</ele>
        <time>2011-04-11T18:22:58Z</time>
      </trkpt>
      <trkpt lat="41.579802000" lon="1.862632000">
        <ele>273.50</ele>
        <time>2011-04-11T18:23:28Z</time>
      </trkpt>
      <trkpt lat="41.579583000" lon="1.862580000">
        <ele>273.50</ele>
        <time>2011-04-11T18:23:36Z</time>
      </trkpt>
      <trkpt lat="41.579338000" lon="1.862752000">
        <ele>274.00</ele>
        <time>2011-04-11T18:23:45Z</time>
      </trkpt>
      <trkpt lat="41.578717000" lon="1.862920000">
        <ele>275.00</ele>
        <time>2011-04-11T18:24:04Z</time>
      </trkpt>
      <trkpt lat="41.578403000" lon="1.863102000">
        <ele>276.00</ele>
        <time>2011-04-11T18:24:11Z</time>
      </trkpt>
      <trkpt lat="41.577968000" lon="1.863083000">
        <ele>276.00</ele>
        <time>2011-04-11T18:24:20Z</time>
      </trkpt>
      <trkpt lat="41.577887000" lon="1.863162000">
        <ele>276.00</ele>
        <time>2011-04-11T18:24:23Z</time>
      </trkpt>
      <trkpt lat="41.577650000" lon="1.863453000">
        <ele>279.50</ele>
        <time>2011-04-11T18:24:30Z</time>
      </trkpt>
      <trkpt lat="41.577590000" lon="1.863530000">
        <ele>278.00</ele>
        <time>2011-04-11T18:24:32Z</time>
      </trkpt>
      <trkpt lat="41.577140000" lon="1.863638000">
        <ele>278.50</ele>
        <time>2011-04-11T18:24:41Z</time>
      </trkpt>
      <trkpt lat="41.576962000" lon="1.863940000">
        <ele>279.00</ele>
        <time>2011-04-11T18:24:46Z</time>
      </trkpt>
      <trkpt lat="41.576955000" lon="1.864018000">
        <ele>279.00</ele>
        <time>2011-04-11T18:24:46Z</time>
      </trkpt>
      <trkpt lat="41.576943000" lon="1.864152000">
        <ele>279.50</ele>
        <time>2011-04-11T18:24:48Z</time>
      </trkpt>
      <trkpt lat="41.577100000" lon="1.864503000">
        <ele>281.50</ele>
        <time>2011-04-11T18:24:58Z</time>
      </trkpt>
      <trkpt lat="41.577057000" lon="1.864707000">
        <ele>281.50</ele>
        <time>2011-04-11T18:25:02Z</time>
      </trkpt>
      <trkpt lat="41.577005000" lon="1.864923000">
        <ele>284.00</ele>
        <time>2011-04-11T18:25:09Z</time>
      </trkpt>
      <trkpt lat="41.576825000" lon="1.865153000">
        <ele>286.00</ele>
        <time>2011-04-11T18:25:17Z</time>
      </trkpt>
      <trkpt lat="41.576743000" lon="1.865235000">
        <ele>286.00</ele>
        <time>2011-04-11T18:25:19Z</time>
      </trkpt>
      <trkpt lat="41.576492000" lon="1.865343000">
        <ele>287.00</ele>
        <time>2011-04-11T18:25:28Z</time>
      </trkpt>
      <trkpt lat="41.576643000" lon="1.865803000">
        <ele>288.00</ele>
        <time>2011-04-11T18:25:38Z</time>
      </trkpt>
      <trkpt lat="41.576650000" lon="1.866190000">
        <ele>289.00</ele>
        <time>2011-04-11T18:25:45Z</time>
      </trkpt>
      <trkpt lat="41.576602000" lon="1.866275000">
        <ele>289.00</ele>
        <time>2011-04-11T18:25:47Z</time>
      </trkpt>
      <trkpt lat="41.576303000" lon="1.866490000">
        <ele>292.50</ele>
        <time>2011-04-11T18:26:06Z</time>
      </trkpt>
      <trkpt lat="41.576282000" lon="1.866792000">
        <ele>294.50</ele>
        <time>2011-04-11T18:26:17Z</time>
      </trkpt>
      <trkpt lat="41.576195000" lon="1.866860000">
        <ele>295.00</ele>
        <time>2011-04-11T18:26:20Z</time>
      </trkpt>
      <trkpt lat="41.575902000" lon="1.867045000">
        <ele>300.50</ele>
        <time>2011-04-11T18:26:39Z</time>
      </trkpt>
      <trkpt lat="41.575855000" lon="1.867100000">
        <ele>301.50</ele>
        <time>2011-04-11T18:26:43Z</time>
      </trkpt>
      <trkpt lat="41.575707000" lon="1.867255000">
        <ele>306.50</ele>
        <time>2011-04-11T18:26:51Z</time>
      </trkpt>
      <trkpt lat="41.575677000" lon="1.867330000">
        <ele>306.50</ele>
        <time>2011-04-11T18:26:55Z</time>
      </trkpt>
      <trkpt lat="41.575663000" lon="1.867353000">
        <ele>307.50</ele>
        <time>2011-04-11T18:26:55Z</time>
      </trkpt>
      <trkpt lat="41.575692000" lon="1.867475000">
        <ele>310.00</ele>
        <time>2011-04-11T18:27:00Z</time>
      </trkpt>
      <trkpt lat="41.575782000" lon="1.867815000">
        <ele>310.50</ele>
        <time>2011-04-11T18:27:12Z</time>
      </trkpt>
      <trkpt lat="41.575867000" lon="1.867793000">
        <ele>310.50</ele>
        <time>2011-04-11T18:27:14Z</time>
      </trkpt>
      <trkpt lat="41.575885000" lon="1.867773000">
        <ele>311.00</ele>
        <time>2011-04-11T18:27:16Z</time>
      </trkpt>
      <trkpt lat="41.576353000" lon="1.867942000">
        <ele>315.50</ele>
        <time>2011-04-11T18:27:33Z</time>
      </trkpt>
      <trkpt lat="41.576382000" lon="1.867963000">
        <ele>316.00</ele>
        <time>2011-04-11T18:27:33Z</time>
      </trkpt>
      <trkpt lat="41.576598000" lon="1.868153000">
        <ele>316.50</ele>
        <time>2011-04-11T18:27:42Z</time>
      </trkpt>
      <trkpt lat="41.576823000" lon="1.868507000">
        <ele>317.00</ele>
        <time>2011-04-11T18:27:51Z</time>
      </trkpt>
      <trkpt lat="41.576875000" lon="1.868875000">
        <ele>318.00</ele>
        <time>2011-04-11T18:27:58Z</time>
      </trkpt>
      <trkpt lat="41.576902000" lon="1.868917000">
        <ele>318.00</ele>
        <time>2011-04-11T18:27:59Z</time>
      </trkpt>
      <trkpt lat="41.577120000" lon="1.869173000">
        <ele>321.50</ele>
        <time>2011-04-11T18:28:06Z</time>
      </trkpt>
      <trkpt lat="41.577138000" lon="1.869207000">
        <ele>321.00</ele>
        <time>2011-04-11T18:28:08Z</time>
      </trkpt>
      <trkpt lat="41.577223000" lon="1.869730000">
        <ele>323.00</ele>
        <time>2011-04-11T18:28:20Z</time>
      </trkpt>
      <trkpt lat="41.577265000" lon="1.869812000">
        <ele>326.00</ele>
        <time>2011-04-11T18:28:22Z</time>
      </trkpt>
      <trkpt lat="41.577420000" lon="1.869955000">
        <ele>327.50</ele>
        <time>2011-04-11T18:28:29Z</time>
      </trkpt>
      <trkpt lat="41.577477000" lon="1.870337000">
        <ele>329.50</ele>
        <time>2011-04-11T18:28:38Z</time>
      </trkpt>
      <trkpt lat="41.577365000" lon="1.870875000">
        <ele>333.00</ele>
        <time>2011-04-11T18:28:53Z</time>
      </trkpt>
      <trkpt lat="41.577212000" lon="1.871315000">
        <ele>333.00</ele>
        <time>2011-04-11T18:29:11Z</time>
      </trkpt>
      <trkpt lat="41.577037000" lon="1.871335000">
        <ele>333.00</ele>
        <time>2011-04-11T18:29:19Z</time>
      </trkpt>
      <trkpt lat="41.576865000" lon="1.871183000">
        <ele>333.50</ele>
        <time>2011-04-11T18:29:28Z</time>
      </trkpt>
      <trkpt lat="41.576823000" lon="1.871135000">
        <ele>330.00</ele>
        <time>2011-04-11T18:29:32Z</time>
      </trkpt>
      <trkpt lat="41.576805000" lon="1.871123000">
        <ele>330.00</ele>
        <time>2011-04-11T18:29:33Z</time>
      </trkpt>
      <trkpt lat="41.576637000" lon="1.871085000">
        <ele>330.00</ele>
        <time>2011-04-11T18:29:42Z</time>
      </trkpt>
      <trkpt lat="41.576590000" lon="1.871102000">
        <ele>331.00</ele>
        <time>2011-04-11T18:29:44Z</time>
      </trkpt>
      <trkpt lat="41.576545000" lon="1.871112000">
        <ele>334.00</ele>
        <time>2011-04-11T18:29:46Z</time>
      </trkpt>
      <trkpt lat="41.576417000" lon="1.871215000">
        <ele>343.50</ele>
        <time>2011-04-11T18:29:53Z</time>
      </trkpt>
      <trkpt lat="41.576333000" lon="1.871288000">
        <ele>345.00</ele>
        <time>2011-04-11T18:29:58Z</time>
      </trkpt>
      <trkpt lat="41.576298000" lon="1.871347000">
        <ele>346.00</ele>
        <time>2011-04-11T18:30:01Z</time>
      </trkpt>
      <trkpt lat="41.576142000" lon="1.871623000">
        <ele>347.00</ele>
        <time>2011-04-11T18:30:13Z</time>
      </trkpt>
      <trkpt lat="41.575982000" lon="1.871798000">
        <ele>349.50</ele>
        <time>2011-04-11T18:30:24Z</time>
      </trkpt>
      <trkpt lat="41.575637000" lon="1.871953000">
        <ele>353.00</ele>
        <time>2011-04-11T18:30:48Z</time>
      </trkpt>
      <trkpt lat="41.575517000" lon="1.872125000">
        <ele>353.50</ele>
        <time>2011-04-11T18:30:57Z</time>
      </trkpt>
      <trkpt lat="41.574822000" lon="1.872563000">
        <ele>356.50</ele>
        <time>2011-04-11T18:31:44Z</time>
      </trkpt>
      <trkpt lat="41.574560000" lon="1.872767000">
        <ele>359.00</ele>
        <time>2011-04-11T18:32:03Z</time>
      </trkpt>
      <trkpt lat="41.574373000" lon="1.872625000">
        <ele>360.00</ele>
        <time>2011-04-11T18:32:19Z</time>
      </trkpt>
      <trkpt lat="41.574305000" lon="1.872400000">
        <ele>361.50</ele>
        <time>2011-04-11T18:32:33Z</time>
      </trkpt>
      <trkpt lat="41.574168000" lon="1.872287000">
        <ele>361.50</ele>
        <time>2011-04-11T18:32:40Z</time>
      </trkpt>
      <trkpt lat="41.574003000" lon="1.872252000">
        <ele>361.50</ele>
        <time>2011-04-11T18:32:48Z</time>
      </trkpt>
      <trkpt lat="41.573787000" lon="1.872245000">
        <ele>360.50</ele>
        <time>2011-04-11T18:32:54Z</time>
      </trkpt>
      <trkpt lat="41.573740000" lon="1.872248000">
        <ele>359.00</ele>
        <time>2011-04-11T18:32:54Z</time>
      </trkpt>
      <trkpt lat="41.573402000" lon="1.872125000">
        <ele>360.00</ele>
        <time>2011-04-11T18:33:01Z</time>
      </trkpt>
      <trkpt lat="41.573283000" lon="1.872058000">
        <ele>360.00</ele>
        <time>2011-04-11T18:33:04Z</time>
      </trkpt>
      <trkpt lat="41.573252000" lon="1.872040000">
        <ele>358.00</ele>
        <time>2011-04-11T18:33:06Z</time>
      </trkpt>
      <trkpt lat="41.573032000" lon="1.871863000">
        <ele>357.50</ele>
        <time>2011-04-11T18:33:09Z</time>
      </trkpt>
      <trkpt lat="41.572738000" lon="1.871688000">
        <ele>358.00</ele>
        <time>2011-04-11T18:33:13Z</time>
      </trkpt>
      <trkpt lat="41.572258000" lon="1.871442000">
        <ele>357.00</ele>
        <time>2011-04-11T18:33:20Z</time>
      </trkpt>
      <trkpt lat="41.571935000" lon="1.871368000">
        <ele>357.00</ele>
        <time>2011-04-11T18:33:25Z</time>
      </trkpt>
      <trkpt lat="41.571833000" lon="1.871163000">
        <ele>357.00</ele>
        <time>2011-04-11T18:33:29Z</time>
      </trkpt>
      <trkpt lat="41.572018000" lon="1.870630000">
        <ele>357.50</ele>
        <time>2011-04-11T18:33:39Z</time>
      </trkpt>
      <trkpt lat="41.572082000" lon="1.870123000">
        <ele>357.50</ele>
        <time>2011-04-11T18:33:46Z</time>
      </trkpt>
      <trkpt lat="41.571878000" lon="1.869798000">
        <ele>356.50</ele>
        <time>2011-04-11T18:33:51Z</time>
      </trkpt>
      <trkpt lat="41.571770000" lon="1.869417000">
        <ele>356.00</ele>
        <time>2011-04-11T18:33:55Z</time>
      </trkpt>
      <trkpt lat="41.571618000" lon="1.867968000">
        <ele>354.00</ele>
        <time>2011-04-11T18:34:09Z</time>
      </trkpt>
      <trkpt lat="41.571712000" lon="1.867712000">
        <ele>352.00</ele>
        <time>2011-04-11T18:34:12Z</time>
      </trkpt>
      <trkpt lat="41.571445000" lon="1.867822000">
        <ele>349.00</ele>
        <time>2011-04-11T18:34:17Z</time>
      </trkpt>
      <trkpt lat="41.571367000" lon="1.868003000">
        <ele>344.50</ele>
        <time>2011-04-11T18:34:23Z</time>
      </trkpt>
      <trkpt lat="41.571288000" lon="1.868267000">
        <ele>340.50</ele>
        <time>2011-04-11T18:34:26Z</time>
      </trkpt>
      <trkpt lat="41.571240000" lon="1.868517000">
        <ele>339.00</ele>
        <time>2011-04-11T18:34:31Z</time>
      </trkpt>
      <trkpt lat="41.571218000" lon="1.868583000">
        <ele>337.00</ele>
        <time>2011-04-11T18:34:33Z</time>
      </trkpt>
      <trkpt lat="41.571027000" lon="1.869010000">
        <ele>336.50</ele>
        <time>2011-04-11T18:34:38Z</time>
      </trkpt>
      <trkpt lat="41.570955000" lon="1.869152000">
        <ele>333.50</ele>
        <time>2011-04-11T18:34:40Z</time>
      </trkpt>
      <trkpt lat="41.570775000" lon="1.869410000">
        <ele>332.00</ele>
        <time>2011-04-11T18:34:45Z</time>
      </trkpt>
      <trkpt lat="41.570763000" lon="1.869535000">
        <ele>330.50</ele>
        <time>2011-04-11T18:34:47Z</time>
      </trkpt>
      <trkpt lat="41.570812000" lon="1.869560000">
        <ele>328.00</ele>
        <time>2011-04-11T18:34:59Z</time>
      </trkpt>
      <trkpt lat="41.570880000" lon="1.869632000">
        <ele>322.00</ele>
        <time>2011-04-11T18:35:18Z</time>
      </trkpt>
      <trkpt lat="41.570888000" lon="1.869662000">
        <ele>321.00</ele>
        <time>2011-04-11T18:35:20Z</time>
      </trkpt>
      <trkpt lat="41.570962000" lon="1.870032000">
        <ele>320.50</ele>
        <time>2011-04-11T18:35:41Z</time>
      </trkpt>
      <trkpt lat="41.571208000" lon="1.870245000">
        <ele>320.00</ele>
        <time>2011-04-11T18:35:53Z</time>
      </trkpt>
      <trkpt lat="41.571275000" lon="1.870333000">
        <ele>318.00</ele>
        <time>2011-04-11T18:35:57Z</time>
      </trkpt>
      <trkpt lat="41.571180000" lon="1.870597000">
        <ele>311.50</ele>
        <time>2011-04-11T18:36:05Z</time>
      </trkpt>
      <trkpt lat="41.571068000" lon="1.870960000">
        <ele>309.00</ele>
        <time>2011-04-11T18:36:14Z</time>
      </trkpt>
      <trkpt lat="41.571045000" lon="1.871157000">
        <ele>308.50</ele>
        <time>2011-04-11T18:36:19Z</time>
      </trkpt>
      <trkpt lat="41.571220000" lon="1.871592000">
        <ele>308.00</ele>
        <time>2011-04-11T18:36:28Z</time>
      </trkpt>
      <trkpt lat="41.571350000" lon="1.872273000">
        <ele>306.50</ele>
        <time>2011-04-11T18:36:40Z</time>
      </trkpt>
      <trkpt lat="41.571568000" lon="1.872557000">
        <ele>306.50</ele>
        <time>2011-04-11T18:36:45Z</time>
      </trkpt>
      <trkpt lat="41.571695000" lon="1.873220000">
        <ele>306.00</ele>
        <time>2011-04-11T18:36:52Z</time>
      </trkpt>
      <trkpt lat="41.571642000" lon="1.873725000">
        <ele>305.00</ele>
        <time>2011-04-11T18:36:56Z</time>
      </trkpt>
      <trkpt lat="41.571487000" lon="1.874048000">
        <ele>304.00</ele>
        <time>2011-04-11T18:37:01Z</time>
      </trkpt>
      <trkpt lat="41.571472000" lon="1.874130000">
        <ele>302.00</ele>
        <time>2011-04-11T18:37:01Z</time>
      </trkpt>
      <trkpt lat="41.571288000" lon="1.874280000">
        <ele>300.00</ele>
        <time>2011-04-11T18:37:06Z</time>
      </trkpt>
      <trkpt lat="41.571257000" lon="1.874337000">
        <ele>300.00</ele>
        <time>2011-04-11T18:37:08Z</time>
      </trkpt>
      <trkpt lat="41.571672000" lon="1.875280000">
        <ele>298.50</ele>
        <time>2011-04-11T18:37:18Z</time>
      </trkpt>
      <trkpt lat="41.571652000" lon="1.875972000">
        <ele>297.00</ele>
        <time>2011-04-11T18:37:27Z</time>
      </trkpt>
      <trkpt lat="41.571480000" lon="1.876410000">
        <ele>296.00</ele>
        <time>2011-04-11T18:37:32Z</time>
      </trkpt>
      <trkpt lat="41.571398000" lon="1.876725000">
        <ele>294.00</ele>
        <time>2011-04-11T18:37:36Z</time>
      </trkpt>
      <trkpt lat="41.571020000" lon="1.876932000">
        <ele>290.50</ele>
        <time>2011-04-11T18:37:45Z</time>
      </trkpt>
      <trkpt lat="41.570765000" lon="1.877470000">
        <ele>286.00</ele>
        <time>2011-04-11T18:37:53Z</time>
      </trkpt>
      <trkpt lat="41.570570000" lon="1.877682000">
        <ele>284.00</ele>
        <time>2011-04-11T18:37:57Z</time>
      </trkpt>
      <trkpt lat="41.570188000" lon="1.878078000">
        <ele>282.00</ele>
        <time>2011-04-11T18:38:02Z</time>
      </trkpt>
      <trkpt lat="41.569765000" lon="1.878993000">
        <ele>280.50</ele>
        <time>2011-04-11T18:38:14Z</time>
      </trkpt>
      <trkpt lat="41.569743000" lon="1.879107000">
        <ele>278.50</ele>
        <time>2011-04-11T18:38:16Z</time>
      </trkpt>
      <trkpt lat="41.569703000" lon="1.879203000">
        <ele>278.50</ele>
        <time>2011-04-11T18:38:18Z</time>
      </trkpt>
      <trkpt lat="41.569475000" lon="1.879475000">
        <ele>277.50</ele>
        <time>2011-04-11T18:38:26Z</time>
      </trkpt>
      <trkpt lat="41.568882000" lon="1.880122000">
        <ele>267.00</ele>
        <time>2011-04-11T18:38:53Z</time>
      </trkpt>
      <trkpt lat="41.568505000" lon="1.880537000">
        <ele>264.00</ele>
        <time>2011-04-11T18:39:10Z</time>
      </trkpt>
      <trkpt lat="41.568457000" lon="1.880587000">
        <ele>262.00</ele>
        <time>2011-04-11T18:39:12Z</time>
      </trkpt>
      <trkpt lat="41.568412000" lon="1.880628000">
        <ele>262.00</ele>
        <time>2011-04-11T18:39:15Z</time>
      </trkpt>
      <trkpt lat="41.568365000" lon="1.880655000">
        <ele>261.50</ele>
        <time>2011-04-11T18:39:17Z</time>
      </trkpt>
      <trkpt lat="41.568193000" lon="1.880680000">
        <ele>261.50</ele>
        <time>2011-04-11T18:39:22Z</time>
      </trkpt>
      <trkpt lat="41.567993000" lon="1.880625000">
        <ele>261.00</ele>
        <time>2011-04-11T18:39:29Z</time>
      </trkpt>
      <trkpt lat="41.567567000" lon="1.880147000">
        <ele>259.50</ele>
        <time>2011-04-11T18:39:43Z</time>
      </trkpt>
      <trkpt lat="41.567270000" lon="1.880435000">
        <ele>258.50</ele>
        <time>2011-04-11T18:39:48Z</time>
      </trkpt>
      <trkpt lat="41.566940000" lon="1.880547000">
        <ele>258.00</ele>
        <time>2011-04-11T18:39:54Z</time>
      </trkpt>
      <trkpt lat="41.566732000" lon="1.880377000">
        <ele>258.00</ele>
        <time>2011-04-11T18:39:59Z</time>
      </trkpt>
      <trkpt lat="41.566683000" lon="1.880310000">
        <ele>256.50</ele>
        <time>2011-04-11T18:40:02Z</time>
      </trkpt>
      <trkpt lat="41.566607000" lon="1.880278000">
        <ele>256.50</ele>
        <time>2011-04-11T18:40:04Z</time>
      </trkpt>
      <trkpt lat="41.565948000" lon="1.880717000">
        <ele>255.50</ele>
        <time>2011-04-11T18:40:20Z</time>
      </trkpt>
      <trkpt lat="41.565700000" lon="1.880872000">
        <ele>254.50</ele>
        <time>2011-04-11T18:40:25Z</time>
      </trkpt>
      <trkpt lat="41.564558000" lon="1.881413000">
        <ele>250.00</ele>
        <time>2011-04-11T18:40:48Z</time>
      </trkpt>
      <trkpt lat="41.564500000" lon="1.881437000">
        <ele>250.00</ele>
        <time>2011-04-11T18:40:49Z</time>
      </trkpt>
      <trkpt lat="41.563630000" lon="1.881725000">
        <ele>249.50</ele>
        <time>2011-04-11T18:41:03Z</time>
      </trkpt>
      <trkpt lat="41.563558000" lon="1.881738000">
        <ele>249.50</ele>
        <time>2011-04-11T18:41:03Z</time>
      </trkpt>
      <trkpt lat="41.562915000" lon="1.881763000">
        <ele>247.50</ele>
        <time>2011-04-11T18:41:12Z</time>
      </trkpt>
      <trkpt lat="41.562588000" lon="1.881690000">
        <ele>247.00</ele>
        <time>2011-04-11T18:41:17Z</time>
      </trkpt>
      <trkpt lat="41.561295000" lon="1.881260000">
        <ele>246.50</ele>
        <time>2011-04-11T18:41:45Z</time>
      </trkpt>
      <trkpt lat="41.560365000" lon="1.881073000">
        <ele>246.50</ele>
        <time>2011-04-11T18:42:09Z</time>
      </trkpt>
      <trkpt lat="41.560243000" lon="1.881138000">
        <ele>246.50</ele>
        <time>2011-04-11T18:42:13Z</time>
      </trkpt>
      <trkpt lat="41.559648000" lon="1.881137000">
        <ele>246.50</ele>
        <time>2011-04-11T18:42:27Z</time>
      </trkpt>
      <trkpt lat="41.559130000" lon="1.881097000">
        <ele>247.00</ele>
        <time>2011-04-11T18:42:41Z</time>
      </trkpt>
      <trkpt lat="41.558892000" lon="1.881072000">
        <ele>246.50</ele>
        <time>2011-04-11T18:42:46Z</time>
      </trkpt>
      <trkpt lat="41.558817000" lon="1.881060000">
        <ele>243.00</ele>
        <time>2011-04-11T18:42:48Z</time>
      </trkpt>
      <trkpt lat="41.558698000" lon="1.881038000">
        <ele>244.00</ele>
        <time>2011-04-11T18:42:51Z</time>
      </trkpt>
      <trkpt lat="41.558655000" lon="1.881020000">
        <ele>248.50</ele>
        <time>2011-04-11T18:42:53Z</time>
      </trkpt>
      <trkpt lat="41.558615000" lon="1.881015000">
        <ele>249.00</ele>
        <time>2011-04-11T18:42:53Z</time>
      </trkpt>
      <trkpt lat="41.558575000" lon="1.881002000">
        <ele>252.00</ele>
        <time>2011-04-11T18:42:55Z</time>
      </trkpt>
      <trkpt lat="41.558497000" lon="1.880968000">
        <ele>258.00</ele>
        <time>2011-04-11T18:42:56Z</time>
      </trkpt>
      <trkpt lat="41.558423000" lon="1.880940000">
        <ele>260.00</ele>
        <time>2011-04-11T18:42:58Z</time>
      </trkpt>
      <trkpt lat="41.558233000" lon="1.880872000">
        <ele>261.00</ele>
        <time>2011-04-11T18:43:03Z</time>
      </trkpt>
      <trkpt lat="41.558202000" lon="1.880863000">
        <ele>256.50</ele>
        <time>2011-04-11T18:43:05Z</time>
      </trkpt>
      <trkpt lat="41.558133000" lon="1.880833000">
        <ele>252.50</ele>
        <time>2011-04-11T18:43:07Z</time>
      </trkpt>
      <trkpt lat="41.558062000" lon="1.880808000">
        <ele>251.00</ele>
        <time>2011-04-11T18:43:09Z</time>
      </trkpt>
      <trkpt lat="41.557850000" lon="1.880678000">
        <ele>249.50</ele>
        <time>2011-04-11T18:43:14Z</time>
      </trkpt>
      <trkpt lat="41.557745000" lon="1.880590000">
        <ele>249.00</ele>
        <time>2011-04-11T18:43:17Z</time>
      </trkpt>
      <trkpt lat="41.557480000" lon="1.880343000">
        <ele>251.00</ele>
        <time>2011-04-11T18:43:26Z</time>
      </trkpt>
      <trkpt lat="41.557312000" lon="1.880220000">
        <ele>250.50</ele>
        <time>2011-04-11T18:43:31Z</time>
      </trkpt>
      <trkpt lat="41.557210000" lon="1.880105000">
        <ele>253.00</ele>
        <time>2011-04-11T18:43:33Z</time>
      </trkpt>
      <trkpt lat="41.556988000" lon="1.879878000">
        <ele>250.50</ele>
        <time>2011-04-11T18:43:40Z</time>
      </trkpt>
      <trkpt lat="41.556792000" lon="1.879682000">
        <ele>252.00</ele>
        <time>2011-04-11T18:43:47Z</time>
      </trkpt>
      <trkpt lat="41.556682000" lon="1.879588000">
        <ele>249.00</ele>
        <time>2011-04-11T18:43:49Z</time>
      </trkpt>
      <trkpt lat="41.556643000" lon="1.879553000">
        <ele>250.00</ele>
        <time>2011-04-11T18:43:50Z</time>
      </trkpt>
      <trkpt lat="41.556412000" lon="1.879373000">
        <ele>244.00</ele>
        <time>2011-04-11T18:43:57Z</time>
      </trkpt>
      <trkpt lat="41.556215000" lon="1.879237000">
        <ele>243.00</ele>
        <time>2011-04-11T18:44:01Z</time>
      </trkpt>
      <trkpt lat="41.555927000" lon="1.879093000">
        <ele>240.50</ele>
        <time>2011-04-11T18:44:08Z</time>
      </trkpt>
      <trkpt lat="41.555878000" lon="1.879088000">
        <ele>244.50</ele>
        <time>2011-04-11T18:44:10Z</time>
      </trkpt>
      <trkpt lat="41.555417000" lon="1.878872000">
        <ele>242.00</ele>
        <time>2011-04-11T18:44:20Z</time>
      </trkpt>
      <trkpt lat="41.555372000" lon="1.878867000">
        <ele>241.50</ele>
        <time>2011-04-11T18:44:22Z</time>
      </trkpt>
      <trkpt lat="41.555323000" lon="1.878867000">
        <ele>245.50</ele>
        <time>2011-04-11T18:44:22Z</time>
      </trkpt>
      <trkpt lat="41.555030000" lon="1.878782000">
        <ele>248.00</ele>
        <time>2011-04-11T18:44:29Z</time>
      </trkpt>
      <trkpt lat="41.554785000" lon="1.878713000">
        <ele>246.50</ele>
        <time>2011-04-11T18:44:34Z</time>
      </trkpt>
      <trkpt lat="41.554735000" lon="1.878712000">
        <ele>246.50</ele>
        <time>2011-04-11T18:44:34Z</time>
      </trkpt>
      <trkpt lat="41.554687000" lon="1.878705000">
        <ele>245.00</ele>
        <time>2011-04-11T18:44:36Z</time>
      </trkpt>
      <trkpt lat="41.554338000" lon="1.878665000">
        <ele>247.00</ele>
        <time>2011-04-11T18:44:43Z</time>
      </trkpt>
      <trkpt lat="41.554290000" lon="1.878668000">
        <ele>246.00</ele>
        <time>2011-04-11T18:44:43Z</time>
      </trkpt>
      <trkpt lat="41.554237000" lon="1.878667000">
        <ele>250.50</ele>
        <time>2011-04-11T18:44:44Z</time>
      </trkpt>
      <trkpt lat="41.554188000" lon="1.878678000">
        <ele>250.00</ele>
        <time>2011-04-11T18:44:46Z</time>
      </trkpt>
      <trkpt lat="41.554140000" lon="1.878678000">
        <ele>251.50</ele>
        <time>2011-04-11T18:44:46Z</time>
      </trkpt>
      <trkpt lat="41.554055000" lon="1.878713000">
        <ele>250.00</ele>
        <time>2011-04-11T18:44:48Z</time>
      </trkpt>
      <trkpt lat="41.553980000" lon="1.878800000">
        <ele>251.00</ele>
        <time>2011-04-11T18:44:50Z</time>
      </trkpt>
      <trkpt lat="41.553925000" lon="1.878980000">
        <ele>252.00</ele>
        <time>2011-04-11T18:44:53Z</time>
      </trkpt>
      <trkpt lat="41.553957000" lon="1.879215000">
        <ele>253.00</ele>
        <time>2011-04-11T18:44:58Z</time>
      </trkpt>
      <trkpt lat="41.553978000" lon="1.879498000">
        <ele>256.00</ele>
        <time>2011-04-11T18:45:05Z</time>
      </trkpt>
      <trkpt lat="41.553990000" lon="1.879738000">
        <ele>262.00</ele>
        <time>2011-04-11T18:45:12Z</time>
      </trkpt>
      <trkpt lat="41.554023000" lon="1.879998000">
        <ele>265.00</ele>
        <time>2011-04-11T18:45:19Z</time>
      </trkpt>
      <trkpt lat="41.554057000" lon="1.880202000">
        <ele>263.00</ele>
        <time>2011-04-11T18:45:23Z</time>
      </trkpt>
      <trkpt lat="41.554063000" lon="1.880278000">
        <ele>263.00</ele>
        <time>2011-04-11T18:45:23Z</time>
      </trkpt>
      <trkpt lat="41.553932000" lon="1.880548000">
        <ele>263.00</ele>
        <time>2011-04-11T18:45:28Z</time>
      </trkpt>
      <trkpt lat="41.553680000" lon="1.880633000">
        <ele>262.50</ele>
        <time>2011-04-11T18:45:33Z</time>
      </trkpt>
      <trkpt lat="41.552442000" lon="1.880793000">
        <ele>264.50</ele>
        <time>2011-04-11T18:45:59Z</time>
      </trkpt>
      <trkpt lat="41.551957000" lon="1.880817000">
        <ele>258.50</ele>
        <time>2011-04-11T18:46:08Z</time>
      </trkpt>
      <trkpt lat="41.551610000" lon="1.880902000">
        <ele>261.00</ele>
        <time>2011-04-11T18:46:15Z</time>
      </trkpt>
      <trkpt lat="41.551447000" lon="1.881042000">
        <ele>261.00</ele>
        <time>2011-04-11T18:46:20Z</time>
      </trkpt>
      <trkpt lat="41.551307000" lon="1.881218000">
        <ele>258.50</ele>
        <time>2011-04-11T18:46:24Z</time>
      </trkpt>
      <trkpt lat="41.550998000" lon="1.881545000">
        <ele>257.50</ele>
        <time>2011-04-11T18:46:31Z</time>
      </trkpt>
      <trkpt lat="41.550260000" lon="1.882340000">
        <ele>258.00</ele>
        <time>2011-04-11T18:46:50Z</time>
      </trkpt>
      <trkpt lat="41.549500000" lon="1.883278000">
        <ele>257.50</ele>
        <time>2011-04-11T18:47:12Z</time>
      </trkpt>
      <trkpt lat="41.549392000" lon="1.883272000">
        <ele>256.00</ele>
        <time>2011-04-11T18:47:14Z</time>
      </trkpt>
      <trkpt lat="41.549212000" lon="1.883293000">
        <ele>256.50</ele>
        <time>2011-04-11T18:47:18Z</time>
      </trkpt>
      <trkpt lat="41.549098000" lon="1.883450000">
        <ele>255.50</ele>
        <time>2011-04-11T18:47:23Z</time>
      </trkpt>
      <trkpt lat="41.548290000" lon="1.883605000">
        <ele>255.50</ele>
        <time>2011-04-11T18:47:37Z</time>
      </trkpt>
      <trkpt lat="41.547702000" lon="1.883627000">
        <ele>256.00</ele>
        <time>2011-04-11T18:47:46Z</time>
      </trkpt>
      <trkpt lat="41.547108000" lon="1.883858000">
        <ele>256.00</ele>
        <time>2011-04-11T18:47:58Z</time>
      </trkpt>
      <trkpt lat="41.546875000" lon="1.883898000">
        <ele>258.00</ele>
        <time>2011-04-11T18:48:03Z</time>
      </trkpt>
      <trkpt lat="41.546827000" lon="1.883935000">
        <ele>258.50</ele>
        <time>2011-04-11T18:48:03Z</time>
      </trkpt>
      <trkpt lat="41.546675000" lon="1.884075000">
        <ele>257.50</ele>
        <time>2011-04-11T18:48:08Z</time>
      </trkpt>
      <trkpt lat="41.546620000" lon="1.884072000">
        <ele>255.50</ele>
        <time>2011-04-11T18:48:08Z</time>
      </trkpt>
      <trkpt lat="41.546535000" lon="1.884112000">
        <ele>256.00</ele>
        <time>2011-04-11T18:48:10Z</time>
      </trkpt>
      <trkpt lat="41.546542000" lon="1.884575000">
        <ele>256.50</ele>
        <time>2011-04-11T18:48:22Z</time>
      </trkpt>
      <trkpt lat="41.546305000" lon="1.884553000">
        <ele>256.50</ele>
        <time>2011-04-11T18:48:27Z</time>
      </trkpt>
      <trkpt lat="41.546027000" lon="1.884878000">
        <ele>256.00</ele>
        <time>2011-04-11T18:48:38Z</time>
      </trkpt>
      <trkpt lat="41.545755000" lon="1.885277000">
        <ele>257.00</ele>
        <time>2011-04-11T18:48:50Z</time>
      </trkpt>
      <trkpt lat="41.545388000" lon="1.885328000">
        <ele>257.50</ele>
        <time>2011-04-11T18:48:59Z</time>
      </trkpt>
      <trkpt lat="41.545117000" lon="1.886018000">
        <ele>258.00</ele>
        <time>2011-04-11T18:49:07Z</time>
      </trkpt>
      <trkpt lat="41.545058000" lon="1.886060000">
        <ele>258.00</ele>
        <time>2011-04-11T18:49:09Z</time>
      </trkpt>
      <trkpt lat="41.545068000" lon="1.886023000">
        <ele>262.50</ele>
        <time>2011-04-11T18:49:14Z</time>
      </trkpt>
      <trkpt lat="41.544982000" lon="1.886023000">
        <ele>253.00</ele>
        <time>2011-04-11T18:49:16Z</time>
      </trkpt>
      <trkpt lat="41.544913000" lon="1.886058000">
        <ele>254.00</ele>
        <time>2011-04-11T18:49:18Z</time>
      </trkpt>
      <trkpt lat="41.544835000" lon="1.886000000">
        <ele>252.50</ele>
        <time>2011-04-11T18:49:23Z</time>
      </trkpt>
      <trkpt lat="41.544817000" lon="1.886007000">
        <ele>251.50</ele>
        <time>2011-04-11T18:49:23Z</time>
      </trkpt>
      <trkpt lat="41.544742000" lon="1.886020000">
        <ele>252.00</ele>
        <time>2011-04-11T18:49:28Z</time>
      </trkpt>
      <trkpt lat="41.544705000" lon="1.886025000">
        <ele>253.00</ele>
        <time>2011-04-11T18:49:30Z</time>
      </trkpt>
      <trkpt lat="41.544693000" lon="1.886030000">
        <ele>256.00</ele>
        <time>2011-04-11T18:49:32Z</time>
      </trkpt>
      <trkpt lat="41.544668000" lon="1.886102000">
        <ele>257.00</ele>
        <time>2011-04-11T18:49:37Z</time>
      </trkpt>
    </trkseg>
  </trk>
</gpx>
